<?xml version="1.0" encoding="UTF-8" standalone="no" ?><gpx xmlns="http://www.topografix.com/GPX/1/1" xmlns:gpxx="http://www.garmin.com/xmlschemas/GpxExtensions/v3" xmlns:wptx1="http://www.garmin.com/xmlschemas/WaypointExtension/v1" xmlns:gpxtpx="http://www.garmin.com/xmlschemas/TrackPointExtension/v1" creator="Astro 320" version="1.1" xmlns:xsi="http://www.w3.org/2001/XMLSchema-instance" xsi:schemaLocation="http://www.topografix.com/GPX/1/1 http://www.topografix.com/GPX/1/1/gpx.xsd http://www.garmin.com/xmlschemas/GpxExtensions/v3 http://www8.garmin.com/xmlschemas/GpxExtensionsv3.xsd http://www.garmin.com/xmlschemas/WaypointExtension/v1 http://www8.garmin.com/xmlschemas/WaypointExtensionv1.xsd http://www.garmin.com/xmlschemas/TrackPointExtension/v1 http://www.garmin.com/xmlschemas/TrackPointExtensionv1.xsd"><metadata><link href="http://www.garmin.com"><text>Garmin International</text></link><time>2026-09-03T00:50:01Z</time></metadata><trk><name>2026-09-03 03:49:59</name><extensions><gpxx:TrackExtension><gpxx:DisplayColor>Blue</gpxx:DisplayColor></gpxx:TrackExtension></extensions><trkseg><trkpt lat="59.5567873679" lon="31.2605994008"><ele>70.79</ele><time>2026-09-02T19:02:52Z</time></trkpt><trkpt lat="59.5567999408" lon="31.2606014963"><ele>70.79</ele><time>2026-09-02T19:03:18Z</time></trkpt><trkpt lat="59.5567976777" lon="31.2606035918"><ele>70.79</ele><time>2026-09-02T19:03:47Z</time></trkpt><trkpt lat="59.5568022039" lon="31.2606240436"><ele>70.79</ele><time>2026-09-02T19:04:11Z</time></trkpt><trkpt lat="59.5568203088" lon="31.2606864888"><ele>70.79</ele><time>2026-09-02T19:04:19Z</time></trkpt><trkpt lat="59.5568103343" lon="31.2608617544"><ele>70.31</ele><time>2026-09-02T19:04:31Z</time></trkpt><trkpt lat="59.5568123460" lon="31.2608568929"><ele>70.31</ele><time>2026-09-02T19:04:49Z</time></trkpt><trkpt lat="59.5568083227" lon="31.2609086931"><ele>70.31</ele><time>2026-09-02T19:05:02Z</time></trkpt><trkpt lat="59.5568050537" lon="31.2609333359"><ele>71.76</ele><time>2026-09-02T19:05:04Z</time></trkpt><trkpt lat="59.5568027906" lon="31.2609811127"><ele>71.76</ele><time>2026-09-02T19:05:20Z</time></trkpt><trkpt lat="59.5568200573" lon="31.2609601580"><ele>71.76</ele><time>2026-09-02T19:05:26Z</time></trkpt><trkpt lat="59.5568320435" lon="31.2609372754"><ele>71.76</ele><time>2026-09-02T19:05:42Z</time></trkpt><trkpt lat="59.5568226557" lon="31.2609405443"><ele>71.76</ele><time>2026-09-02T19:05:56Z</time></trkpt><trkpt lat="59.5567847695" lon="31.2610090245"><ele>71.76</ele><time>2026-09-02T19:06:17Z</time></trkpt><trkpt lat="59.5567437820" lon="31.2611583900"><ele>71.76</ele><time>2026-09-02T19:06:27Z</time></trkpt><trkpt lat="59.5566886291" lon="31.2613555323"><ele>71.76</ele><time>2026-09-02T19:06:40Z</time></trkpt><trkpt lat="59.5566635672" lon="31.2614910677"><ele>71.27</ele><time>2026-09-02T19:06:54Z</time></trkpt><trkpt lat="59.5566473901" lon="31.2616639864"><ele>69.83</ele><time>2026-09-02T19:07:03Z</time></trkpt><trkpt lat="59.5566317160" lon="31.2618264277"><ele>69.83</ele><time>2026-09-02T19:07:18Z</time></trkpt><trkpt lat="59.5565689355" lon="31.2621711753"><ele>68.87</ele><time>2026-09-02T19:07:37Z</time></trkpt><trkpt lat="59.5565195661" lon="31.2624951359"><ele>68.39</ele><time>2026-09-02T19:07:51Z</time></trkpt><trkpt lat="59.5565296244" lon="31.2627111375"><ele>67.43</ele><time>2026-09-02T19:08:05Z</time></trkpt><trkpt lat="59.5564847812" lon="31.2630383670"><ele>66.95</ele><time>2026-09-02T19:08:17Z</time></trkpt><trkpt lat="59.5564888045" lon="31.2630843837"><ele>66.95</ele><time>2026-09-02T19:08:35Z</time></trkpt><trkpt lat="59.5564724598" lon="31.2631244492"><ele>66.47</ele><time>2026-09-02T19:09:08Z</time></trkpt><trkpt lat="59.5564413629" lon="31.2632443942"><ele>66.47</ele><time>2026-09-02T19:09:23Z</time></trkpt><trkpt lat="59.5564299636" lon="31.2633041572"><ele>66.47</ele><time>2026-09-02T19:09:49Z</time></trkpt><trkpt lat="59.5564289577" lon="31.2633091863"><ele>66.47</ele><time>2026-09-02T19:09:53Z</time></trkpt><trkpt lat="59.5564243477" lon="31.2633580528"><ele>66.47</ele><time>2026-09-02T19:10:13Z</time></trkpt><trkpt lat="59.5564152114" lon="31.2633957714"><ele>65.99</ele><time>2026-09-02T19:10:40Z</time></trkpt><trkpt lat="59.5564119425" lon="31.2634517625"><ele>65.99</ele><time>2026-09-02T19:11:13Z</time></trkpt><trkpt lat="59.5564214978" lon="31.2634902354"><ele>65.99</ele><time>2026-09-02T19:11:44Z</time></trkpt><trkpt lat="59.5564232580" lon="31.2635608111"><ele>65.99</ele><time>2026-09-02T19:12:08Z</time></trkpt><trkpt lat="59.5564152114" lon="31.2637413573"><ele>65.99</ele><time>2026-09-02T19:12:31Z</time></trkpt><trkpt lat="59.5563976932" lon="31.2639277708"><ele>65.51</ele><time>2026-09-02T19:12:48Z</time></trkpt><trkpt lat="59.5563655905" lon="31.2639435288"><ele>65.03</ele><time>2026-09-02T19:13:11Z</time></trkpt><trkpt lat="59.5563810971" lon="31.2642364763"><ele>65.03</ele><time>2026-09-02T19:13:36Z</time></trkpt><trkpt lat="59.5563938376" lon="31.2644295115"><ele>64.55</ele><time>2026-09-02T19:13:52Z</time></trkpt><trkpt lat="59.5563688595" lon="31.2648012489"><ele>64.07</ele><time>2026-09-02T19:14:04Z</time></trkpt><trkpt lat="59.5563480724" lon="31.2650770135"><ele>63.58</ele><time>2026-09-02T19:14:21Z</time></trkpt><trkpt lat="59.5563356671" lon="31.2654165644"><ele>63.10</ele><time>2026-09-02T19:14:33Z</time></trkpt><trkpt lat="59.5562787540" lon="31.2657681853"><ele>61.66</ele><time>2026-09-02T19:14:46Z</time></trkpt><trkpt lat="59.5562573802" lon="31.2659403495"><ele>61.66</ele><time>2026-09-02T19:14:54Z</time></trkpt><trkpt lat="59.5562843699" lon="31.2662747875"><ele>61.18</ele><time>2026-09-02T19:15:08Z</time></trkpt><trkpt lat="59.5563056599" lon="31.2665326986"><ele>61.18</ele><time>2026-09-02T19:15:22Z</time></trkpt><trkpt lat="59.5563479047" lon="31.2667030189"><ele>60.70</ele><time>2026-09-02T19:15:34Z</time></trkpt><trkpt lat="59.5564047340" lon="31.2669684738"><ele>60.70</ele><time>2026-09-02T19:15:52Z</time></trkpt><trkpt lat="59.5564624853" lon="31.2671506125"><ele>60.70</ele><time>2026-09-02T19:16:10Z</time></trkpt><trkpt lat="59.5564810093" lon="31.2671874091"><ele>60.70</ele><time>2026-09-02T19:16:30Z</time></trkpt><trkpt lat="59.5564945042" lon="31.2672117166"><ele>60.70</ele><time>2026-09-02T19:17:03Z</time></trkpt><trkpt lat="59.5564976893" lon="31.2672330067"><ele>60.70</ele><time>2026-09-02T19:17:23Z</time></trkpt><trkpt lat="59.5565028861" lon="31.2672459148"><ele>60.70</ele><time>2026-09-02T19:17:37Z</time></trkpt><trkpt lat="59.5565173030" lon="31.2672512792"><ele>60.70</ele><time>2026-09-02T19:18:01Z</time></trkpt><trkpt lat="59.5565252658" lon="31.2672682106"><ele>60.70</ele><time>2026-09-02T19:18:22Z</time></trkpt><trkpt lat="59.5565253496" lon="31.2672697194"><ele>60.70</ele><time>2026-09-02T19:18:49Z</time></trkpt><trkpt lat="59.5565379225" lon="31.2672342639"><ele>60.70</ele><time>2026-09-02T19:19:16Z</time></trkpt><trkpt lat="59.5565406885" lon="31.2672304083"><ele>60.70</ele><time>2026-09-02T19:19:45Z</time></trkpt><trkpt lat="59.5565408561" lon="31.2672353536"><ele>60.70</ele><time>2026-09-02T19:20:09Z</time></trkpt><trkpt lat="59.5565426163" lon="31.2672434002"><ele>60.70</ele><time>2026-09-02T19:20:33Z</time></trkpt><trkpt lat="59.5565407723" lon="31.2672400475"><ele>60.70</ele><time>2026-09-02T19:21:01Z</time></trkpt><trkpt lat="59.5565413591" lon="31.2672221940"><ele>61.18</ele><time>2026-09-02T19:21:29Z</time></trkpt><trkpt lat="59.5565384254" lon="31.2672250438"><ele>61.18</ele><time>2026-09-02T19:21:52Z</time></trkpt><trkpt lat="59.5565338153" lon="31.2672235351"><ele>61.18</ele><time>2026-09-02T19:22:18Z</time></trkpt><trkpt lat="59.5565352403" lon="31.2672149856"><ele>61.18</ele><time>2026-09-02T19:22:40Z</time></trkpt><trkpt lat="59.5565362461" lon="31.2672130577"><ele>61.18</ele><time>2026-09-02T19:23:07Z</time></trkpt><trkpt lat="59.5565328933" lon="31.2672075257"><ele>61.18</ele><time>2026-09-02T19:23:29Z</time></trkpt><trkpt lat="59.5565330610" lon="31.2672084477"><ele>61.18</ele><time>2026-09-02T19:23:49Z</time></trkpt><trkpt lat="59.5565354079" lon="31.2672146503"><ele>61.18</ele><time>2026-09-02T19:24:13Z</time></trkpt><trkpt lat="59.5565441251" lon="31.2672320846"><ele>61.66</ele><time>2026-09-02T19:24:44Z</time></trkpt><trkpt lat="59.5565499924" lon="31.2672242895"><ele>61.66</ele><time>2026-09-02T19:25:16Z</time></trkpt><trkpt lat="59.5565557759" lon="31.2672337610"><ele>61.66</ele><time>2026-09-02T19:25:45Z</time></trkpt><trkpt lat="59.5565575361" lon="31.2672449928"><ele>61.66</ele><time>2026-09-02T19:26:19Z</time></trkpt><trkpt lat="59.5565619785" lon="31.2672432326"><ele>61.66</ele><time>2026-09-02T19:26:48Z</time></trkpt><trkpt lat="59.5565632358" lon="31.2672608346"><ele>61.18</ele><time>2026-09-02T19:27:09Z</time></trkpt><trkpt lat="59.5565654989" lon="31.2672272231"><ele>79.45</ele><time>2026-09-02T19:28:46Z</time></trkpt><trkpt lat="59.5565613918" lon="31.2672633491"><ele>78.97</ele><time>2026-09-02T19:28:47Z</time></trkpt><trkpt lat="59.5565822627" lon="31.2674305681"><ele>78.48</ele><time>2026-09-02T19:29:10Z</time></trkpt><trkpt lat="59.5566191431" lon="31.2674564682"><ele>81.85</ele><time>2026-09-02T19:29:21Z</time></trkpt><trkpt lat="59.5566469710" lon="31.2674465775"><ele>84.73</ele><time>2026-09-02T19:29:34Z</time></trkpt><trkpt lat="59.5566497371" lon="31.2673968729"><ele>87.62</ele><time>2026-09-02T19:30:14Z</time></trkpt><trkpt lat="59.5566279441" lon="31.2674154807"><ele>87.62</ele><time>2026-09-02T19:30:35Z</time></trkpt><trkpt lat="59.5566094201" lon="31.2673704699"><ele>87.14</ele><time>2026-09-02T19:31:04Z</time></trkpt><trkpt lat="59.5565968473" lon="31.2673670333"><ele>87.14</ele><time>2026-09-02T19:31:23Z</time></trkpt><trkpt lat="59.5566042233" lon="31.2673540413"><ele>87.14</ele><time>2026-09-02T19:31:37Z</time></trkpt><trkpt lat="59.5565943327" lon="31.2673231121"><ele>87.14</ele><time>2026-09-02T19:31:55Z</time></trkpt><trkpt lat="59.5565907285" lon="31.2673174962"><ele>86.66</ele><time>2026-09-02T19:32:20Z</time></trkpt><trkpt lat="59.5565834362" lon="31.2673060969"><ele>86.66</ele><time>2026-09-02T19:32:45Z</time></trkpt><trkpt lat="59.5565341506" lon="31.2674586475"><ele>86.66</ele><time>2026-09-02T19:33:00Z</time></trkpt><trkpt lat="59.5564663410" lon="31.2677227613"><ele>86.18</ele><time>2026-09-02T19:33:16Z</time></trkpt><trkpt lat="59.5564193185" lon="31.2680011243"><ele>86.18</ele><time>2026-09-02T19:33:30Z</time></trkpt><trkpt lat="59.5564468112" lon="31.2681297865"><ele>86.18</ele><time>2026-09-02T19:33:39Z</time></trkpt><trkpt lat="59.5565100107" lon="31.2684059702"><ele>84.73</ele><time>2026-09-02T19:33:53Z</time></trkpt><trkpt lat="59.5565116033" lon="31.2685563415"><ele>83.77</ele><time>2026-09-02T19:34:08Z</time></trkpt><trkpt lat="59.5565219130" lon="31.2686731853"><ele>82.33</ele><time>2026-09-02T19:34:22Z</time></trkpt><trkpt lat="59.5566025469" lon="31.2690190226"><ele>80.41</ele><time>2026-09-02T19:34:40Z</time></trkpt><trkpt lat="59.5566059835" lon="31.2691363692"><ele>79.45</ele><time>2026-09-02T19:34:48Z</time></trkpt><trkpt lat="59.5566138625" lon="31.2692251336"><ele>78.00</ele><time>2026-09-02T19:35:01Z</time></trkpt><trkpt lat="59.5566545986" lon="31.2692932785"><ele>76.56</ele><time>2026-09-02T19:35:15Z</time></trkpt><trkpt lat="59.5566764753" lon="31.2693040073"><ele>76.56</ele><time>2026-09-02T19:35:26Z</time></trkpt><trkpt lat="59.5566728711" lon="31.2693636864"><ele>76.08</ele><time>2026-09-02T19:35:40Z</time></trkpt><trkpt lat="59.5566759724" lon="31.2693558075"><ele>75.60</ele><time>2026-09-02T19:36:00Z</time></trkpt><trkpt lat="59.5566783193" lon="31.2694300711"><ele>75.12</ele><time>2026-09-02T19:36:10Z</time></trkpt><trkpt lat="59.5566862822" lon="31.2695877347"><ele>75.12</ele><time>2026-09-02T19:36:21Z</time></trkpt><trkpt lat="59.5566872880" lon="31.2695949432"><ele>74.64</ele><time>2026-09-02T19:36:36Z</time></trkpt><trkpt lat="59.5566961728" lon="31.2696550414"><ele>74.64</ele><time>2026-09-02T19:36:54Z</time></trkpt><trkpt lat="59.5566865336" lon="31.2697329093"><ele>74.64</ele><time>2026-09-02T19:37:03Z</time></trkpt><trkpt lat="59.5566749666" lon="31.2697594799"><ele>74.16</ele><time>2026-09-02T19:37:15Z</time></trkpt><trkpt lat="59.5566827618" lon="31.2697857991"><ele>73.68</ele><time>2026-09-02T19:37:43Z</time></trkpt><trkpt lat="59.5566814207" lon="31.2697643414"><ele>73.20</ele><time>2026-09-02T19:38:10Z</time></trkpt><trkpt lat="59.5566793252" lon="31.2697839551"><ele>73.20</ele><time>2026-09-02T19:38:15Z</time></trkpt><trkpt lat="59.5566385891" lon="31.2699930836"><ele>73.20</ele><time>2026-09-02T19:38:28Z</time></trkpt><trkpt lat="59.5565679297" lon="31.2702138629"><ele>73.20</ele><time>2026-09-02T19:38:40Z</time></trkpt><trkpt lat="59.5565230865" lon="31.2703156192"><ele>72.72</ele><time>2026-09-02T19:38:51Z</time></trkpt><trkpt lat="59.5564846136" lon="31.2704149447"><ele>72.72</ele><time>2026-09-02T19:39:00Z</time></trkpt><trkpt lat="59.5564438775" lon="31.2706334610"><ele>72.72</ele><time>2026-09-02T19:39:13Z</time></trkpt><trkpt lat="59.5564914029" lon="31.2707944773"><ele>72.24</ele><time>2026-09-02T19:39:26Z</time></trkpt><trkpt lat="59.5565077476" lon="31.2709750235"><ele>72.24</ele><time>2026-09-02T19:39:36Z</time></trkpt><trkpt lat="59.5565038919" lon="31.2710140832"><ele>72.24</ele><time>2026-09-02T19:39:38Z</time></trkpt><trkpt lat="59.5565245952" lon="31.2712185178"><ele>72.24</ele><time>2026-09-02T19:39:52Z</time></trkpt><trkpt lat="59.5565121062" lon="31.2713265605"><ele>71.27</ele><time>2026-09-02T19:40:03Z</time></trkpt><trkpt lat="59.5565711986" lon="31.2715082802"><ele>71.27</ele><time>2026-09-02T19:40:15Z</time></trkpt><trkpt lat="59.5566488151" lon="31.2716449052"><ele>71.27</ele><time>2026-09-02T19:40:29Z</time></trkpt><trkpt lat="59.5566995256" lon="31.2717164867"><ele>71.27</ele><time>2026-09-02T19:40:41Z</time></trkpt><trkpt lat="59.5567700174" lon="31.2718315702"><ele>70.79</ele><time>2026-09-02T19:40:52Z</time></trkpt><trkpt lat="59.5567723643" lon="31.2718511000"><ele>70.79</ele><time>2026-09-02T19:41:08Z</time></trkpt><trkpt lat="59.5567589533" lon="31.2718559615"><ele>70.31</ele><time>2026-09-02T19:41:43Z</time></trkpt><trkpt lat="59.5567726158" lon="31.2718633376"><ele>69.35</ele><time>2026-09-02T19:42:05Z</time></trkpt><trkpt lat="59.5567729510" lon="31.2719378527"><ele>69.35</ele><time>2026-09-02T19:42:24Z</time></trkpt><trkpt lat="59.5567828417" lon="31.2719916645"><ele>69.35</ele><time>2026-09-02T19:42:35Z</time></trkpt><trkpt lat="59.5567900501" lon="31.2720056623"><ele>68.87</ele><time>2026-09-02T19:42:56Z</time></trkpt><trkpt lat="59.5567853563" lon="31.2720260303"><ele>68.87</ele><time>2026-09-02T19:43:27Z</time></trkpt><trkpt lat="59.5567934867" lon="31.2720408663"><ele>68.39</ele><time>2026-09-02T19:43:55Z</time></trkpt><trkpt lat="59.5567989349" lon="31.2720315624"><ele>68.39</ele><time>2026-09-02T19:44:17Z</time></trkpt><trkpt lat="59.5567986835" lon="31.2720274553"><ele>67.91</ele><time>2026-09-02T19:44:40Z</time></trkpt><trkpt lat="59.5567992702" lon="31.2720209174"><ele>67.91</ele><time>2026-09-02T19:45:00Z</time></trkpt><trkpt lat="59.5568208955" lon="31.2720272876"><ele>67.91</ele><time>2026-09-02T19:45:16Z</time></trkpt><trkpt lat="59.5568369888" lon="31.2720758189"><ele>67.91</ele><time>2026-09-02T19:45:21Z</time></trkpt><trkpt lat="59.5568470471" lon="31.2721315585"><ele>67.91</ele><time>2026-09-02T19:45:26Z</time></trkpt><trkpt lat="59.5568206441" lon="31.2721479032"><ele>67.43</ele><time>2026-09-02T19:45:39Z</time></trkpt><trkpt lat="59.5567991026" lon="31.2722297106"><ele>67.43</ele><time>2026-09-02T19:45:52Z</time></trkpt><trkpt lat="59.5567608811" lon="31.2723114341"><ele>67.43</ele><time>2026-09-02T19:46:05Z</time></trkpt><trkpt lat="59.5567542594" lon="31.2723748013"><ele>66.95</ele><time>2026-09-02T19:46:21Z</time></trkpt><trkpt lat="59.5567272697" lon="31.2724105082"><ele>66.95</ele><time>2026-09-02T19:46:35Z</time></trkpt><trkpt lat="59.5567126852" lon="31.2724099215"><ele>66.95</ele><time>2026-09-02T19:47:03Z</time></trkpt><trkpt lat="59.5566968434" lon="31.2724354025"><ele>66.95</ele><time>2026-09-02T19:47:24Z</time></trkpt><trkpt lat="59.5566924009" lon="31.2724452093"><ele>66.47</ele><time>2026-09-02T19:47:48Z</time></trkpt><trkpt lat="59.5566820074" lon="31.2724863645"><ele>66.47</ele><time>2026-09-02T19:48:10Z</time></trkpt><trkpt lat="59.5566324703" lon="31.2725716922"><ele>66.47</ele><time>2026-09-02T19:48:20Z</time></trkpt><trkpt lat="59.5566196460" lon="31.2726130150"><ele>65.99</ele><time>2026-09-02T19:48:51Z</time></trkpt><trkpt lat="59.5566286147" lon="31.2726212293"><ele>65.99</ele><time>2026-09-02T19:49:26Z</time></trkpt><trkpt lat="59.5565934107" lon="31.2726479676"><ele>65.51</ele><time>2026-09-02T19:49:46Z</time></trkpt><trkpt lat="59.5565440413" lon="31.2727078144"><ele>65.51</ele><time>2026-09-02T19:49:57Z</time></trkpt><trkpt lat="59.5565592963" lon="31.2728019431"><ele>65.51</ele><time>2026-09-02T19:50:07Z</time></trkpt><trkpt lat="59.5565527584" lon="31.2729440164"><ele>65.51</ele><time>2026-09-02T19:50:20Z</time></trkpt><trkpt lat="59.5565632358" lon="31.2730841618"><ele>65.51</ele><time>2026-09-02T19:50:33Z</time></trkpt><trkpt lat="59.5565503277" lon="31.2731021829"><ele>65.03</ele><time>2026-09-02T19:50:53Z</time></trkpt><trkpt lat="59.5565511659" lon="31.2731242273"><ele>65.03</ele><time>2026-09-02T19:51:01Z</time></trkpt><trkpt lat="59.5565589610" lon="31.2731580064"><ele>65.03</ele><time>2026-09-02T19:51:03Z</time></trkpt><trkpt lat="59.5565565303" lon="31.2732787058"><ele>65.03</ele><time>2026-09-02T19:51:16Z</time></trkpt><trkpt lat="59.5565420296" lon="31.2732854951"><ele>65.03</ele><time>2026-09-02T19:51:31Z</time></trkpt><trkpt lat="59.5565241762" lon="31.2733260635"><ele>65.03</ele><time>2026-09-02T19:51:43Z</time></trkpt><trkpt lat="59.5565344859" lon="31.2733665481"><ele>64.55</ele><time>2026-09-02T19:52:01Z</time></trkpt><trkpt lat="59.5565504115" lon="31.2735340185"><ele>64.55</ele><time>2026-09-02T19:52:17Z</time></trkpt><trkpt lat="59.5565881301" lon="31.2737550493"><ele>64.55</ele><time>2026-09-02T19:52:30Z</time></trkpt><trkpt lat="59.5566914789" lon="31.2739077676"><ele>64.55</ele><time>2026-09-02T19:52:43Z</time></trkpt><trkpt lat="59.5567028783" lon="31.2739376072"><ele>64.55</ele><time>2026-09-02T19:53:00Z</time></trkpt><trkpt lat="59.5567482244" lon="31.2739929277"><ele>64.07</ele><time>2026-09-02T19:53:13Z</time></trkpt><trkpt lat="59.5568238292" lon="31.2741494179"><ele>64.07</ele><time>2026-09-02T19:53:27Z</time></trkpt><trkpt lat="59.5569060557" lon="31.2742787506"><ele>64.07</ele><time>2026-09-02T19:53:43Z</time></trkpt><trkpt lat="59.5569359791" lon="31.2743014656"><ele>64.07</ele><time>2026-09-02T19:53:46Z</time></trkpt><trkpt lat="59.5570152719" lon="31.2743007112"><ele>64.07</ele><time>2026-09-02T19:53:58Z</time></trkpt><trkpt lat="59.5570428483" lon="31.2743580434"><ele>64.07</ele><time>2026-09-02T19:54:13Z</time></trkpt><trkpt lat="59.5570999291" lon="31.2744178902"><ele>63.58</ele><time>2026-09-02T19:54:25Z</time></trkpt><trkpt lat="59.5571481250" lon="31.2744730432"><ele>63.58</ele><time>2026-09-02T19:54:36Z</time></trkpt><trkpt lat="59.5571855083" lon="31.2745161261"><ele>63.58</ele><time>2026-09-02T19:54:49Z</time></trkpt><trkpt lat="59.5572409965" lon="31.2745270226"><ele>63.58</ele><time>2026-09-02T19:55:03Z</time></trkpt><trkpt lat="59.5572989155" lon="31.2746369094"><ele>63.10</ele><time>2026-09-02T19:55:15Z</time></trkpt><trkpt lat="59.5573334489" lon="31.2747779768"><ele>63.10</ele><time>2026-09-02T19:55:28Z</time></trkpt><trkpt lat="59.5573289227" lon="31.2747900467"><ele>63.10</ele><time>2026-09-02T19:55:34Z</time></trkpt><trkpt lat="59.5573412441" lon="31.2748329621"><ele>63.10</ele><time>2026-09-02T19:55:48Z</time></trkpt><trkpt lat="59.5572999213" lon="31.2748737819"><ele>62.62</ele><time>2026-09-02T19:56:10Z</time></trkpt><trkpt lat="59.5573337004" lon="31.2748617120"><ele>62.62</ele><time>2026-09-02T19:56:33Z</time></trkpt><trkpt lat="59.5573411603" lon="31.2748997658"><ele>62.14</ele><time>2026-09-02T19:56:56Z</time></trkpt><trkpt lat="59.5573076326" lon="31.2750245724"><ele>62.14</ele><time>2026-09-02T19:57:10Z</time></trkpt><trkpt lat="59.5572957303" lon="31.2751005124"><ele>62.14</ele><time>2026-09-02T19:57:28Z</time></trkpt><trkpt lat="59.5573004242" lon="31.2751207966"><ele>62.14</ele><time>2026-09-02T19:57:49Z</time></trkpt><trkpt lat="59.5572932158" lon="31.2751575094"><ele>61.66</ele><time>2026-09-02T19:58:08Z</time></trkpt><trkpt lat="59.5572650526" lon="31.2752710003"><ele>61.66</ele><time>2026-09-02T19:58:23Z</time></trkpt><trkpt lat="59.5572078042" lon="31.2754570786"><ele>61.66</ele><time>2026-09-02T19:58:38Z</time></trkpt><trkpt lat="59.5572292618" lon="31.2756924424"><ele>61.66</ele><time>2026-09-02T19:58:52Z</time></trkpt><trkpt lat="59.5572594367" lon="31.2758430652"><ele>61.18</ele><time>2026-09-02T19:59:08Z</time></trkpt><trkpt lat="59.5572924614" lon="31.2760814466"><ele>61.18</ele><time>2026-09-02T19:59:22Z</time></trkpt><trkpt lat="59.5573410764" lon="31.2762805168"><ele>61.18</ele><time>2026-09-02T19:59:38Z</time></trkpt><trkpt lat="59.5572829898" lon="31.2765604723"><ele>61.18</ele><time>2026-09-02T19:59:53Z</time></trkpt><trkpt lat="59.5572908688" lon="31.2767100893"><ele>61.18</ele><time>2026-09-02T20:00:09Z</time></trkpt><trkpt lat="59.5572864264" lon="31.2767030485"><ele>60.70</ele><time>2026-09-02T20:00:41Z</time></trkpt><trkpt lat="59.5572932996" lon="31.2766908109"><ele>60.70</ele><time>2026-09-02T20:01:06Z</time></trkpt><trkpt lat="59.5572994184" lon="31.2767120171"><ele>60.70</ele><time>2026-09-02T20:01:28Z</time></trkpt><trkpt lat="59.5573032741" lon="31.2767293677"><ele>60.70</ele><time>2026-09-02T20:01:54Z</time></trkpt><trkpt lat="59.5573022682" lon="31.2768037152"><ele>60.70</ele><time>2026-09-02T20:02:09Z</time></trkpt><trkpt lat="59.5572954789" lon="31.2769038789"><ele>60.70</ele><time>2026-09-02T20:02:24Z</time></trkpt><trkpt lat="59.5572596043" lon="31.2771096546"><ele>60.70</ele><time>2026-09-02T20:02:38Z</time></trkpt><trkpt lat="59.5572210476" lon="31.2772999238"><ele>60.70</ele><time>2026-09-02T20:02:52Z</time></trkpt><trkpt lat="59.5571975783" lon="31.2774297595"><ele>61.66</ele><time>2026-09-02T20:03:09Z</time></trkpt><trkpt lat="59.5571931358" lon="31.2776134070"><ele>61.66</ele><time>2026-09-02T20:03:24Z</time></trkpt><trkpt lat="59.5572864264" lon="31.2777685560"><ele>61.66</ele><time>2026-09-02T20:03:39Z</time></trkpt><trkpt lat="59.5573120750" lon="31.2779060192"><ele>61.66</ele><time>2026-09-02T20:03:52Z</time></trkpt><trkpt lat="59.5573438425" lon="31.2780110445"><ele>62.14</ele><time>2026-09-02T20:04:04Z</time></trkpt><trkpt lat="59.5573415793" lon="31.2779874913"><ele>62.62</ele><time>2026-09-02T20:04:24Z</time></trkpt><trkpt lat="59.5573559124" lon="31.2780296523"><ele>62.62</ele><time>2026-09-02T20:04:42Z</time></trkpt><trkpt lat="59.5573372208" lon="31.2782707158"><ele>62.62</ele><time>2026-09-02T20:04:54Z</time></trkpt><trkpt lat="59.5572756138" lon="31.2786205765"><ele>62.14</ele><time>2026-09-02T20:05:09Z</time></trkpt><trkpt lat="59.5572891086" lon="31.2787203211"><ele>62.14</ele><time>2026-09-02T20:05:19Z</time></trkpt><trkpt lat="59.5573381428" lon="31.2789162900"><ele>62.14</ele><time>2026-09-02T20:05:34Z</time></trkpt><trkpt lat="59.5573564991" lon="31.2789188046"><ele>62.14</ele><time>2026-09-02T20:05:48Z</time></trkpt><trkpt lat="59.5573605224" lon="31.2789284438"><ele>62.14</ele><time>2026-09-02T20:06:04Z</time></trkpt><trkpt lat="59.5573588461" lon="31.2789309584"><ele>62.14</ele><time>2026-09-02T20:06:26Z</time></trkpt><trkpt lat="59.5573476143" lon="31.2788991909"><ele>61.66</ele><time>2026-09-02T20:06:53Z</time></trkpt><trkpt lat="59.5573604386" lon="31.2788846064"><ele>61.66</ele><time>2026-09-02T20:07:12Z</time></trkpt><trkpt lat="59.5573746040" lon="31.2788804993"><ele>61.66</ele><time>2026-09-02T20:07:29Z</time></trkpt><trkpt lat="59.5573860034" lon="31.2788727880"><ele>61.66</ele><time>2026-09-02T20:07:46Z</time></trkpt><trkpt lat="59.5573933795" lon="31.2789229956"><ele>61.66</ele><time>2026-09-02T20:08:04Z</time></trkpt><trkpt lat="59.5574006718" lon="31.2789576966"><ele>61.66</ele><time>2026-09-02T20:08:27Z</time></trkpt><trkpt lat="59.5574053656" lon="31.2790670805"><ele>61.66</ele><time>2026-09-02T20:08:40Z</time></trkpt><trkpt lat="59.5574136637" lon="31.2792091537"><ele>61.66</ele><time>2026-09-02T20:08:51Z</time></trkpt><trkpt lat="59.5574157592" lon="31.2794081401"><ele>61.66</ele><time>2026-09-02T20:09:05Z</time></trkpt><trkpt lat="59.5574256498" lon="31.2794891093"><ele>61.18</ele><time>2026-09-02T20:09:36Z</time></trkpt><trkpt lat="59.5574233029" lon="31.2796208728"><ele>61.18</ele><time>2026-09-02T20:09:48Z</time></trkpt><trkpt lat="59.5574316010" lon="31.2795750238"><ele>61.18</ele><time>2026-09-02T20:10:11Z</time></trkpt><trkpt lat="59.5574437547" lon="31.2795742694"><ele>61.18</ele><time>2026-09-02T20:10:34Z</time></trkpt><trkpt lat="59.5573956426" lon="31.2795696594"><ele>61.18</ele><time>2026-09-02T20:10:54Z</time></trkpt><trkpt lat="59.5573956426" lon="31.2796397321"><ele>61.18</ele><time>2026-09-02T20:11:11Z</time></trkpt><trkpt lat="59.5574027672" lon="31.2797061168"><ele>61.18</ele><time>2026-09-02T20:11:27Z</time></trkpt><trkpt lat="59.5574204531" lon="31.2797556538"><ele>61.18</ele><time>2026-09-02T20:11:42Z</time></trkpt><trkpt lat="59.5574697386" lon="31.2799243815"><ele>61.18</ele><time>2026-09-02T20:11:56Z</time></trkpt><trkpt lat="59.5575213712" lon="31.2800263055"><ele>61.18</ele><time>2026-09-02T20:12:00Z</time></trkpt><trkpt lat="59.5576237980" lon="31.2801915128"><ele>61.18</ele><time>2026-09-02T20:12:13Z</time></trkpt><trkpt lat="59.5576812979" lon="31.2802314945"><ele>60.70</ele><time>2026-09-02T20:12:28Z</time></trkpt><trkpt lat="59.5577298291" lon="31.2802804448"><ele>59.74</ele><time>2026-09-02T20:12:42Z</time></trkpt><trkpt lat="59.5578201022" lon="31.2803436443"><ele>59.74</ele><time>2026-09-02T20:12:54Z</time></trkpt><trkpt lat="59.5578526240" lon="31.2804659363"><ele>59.26</ele><time>2026-09-02T20:13:07Z</time></trkpt><trkpt lat="59.5578634366" lon="31.2805313151"><ele>59.26</ele><time>2026-09-02T20:13:17Z</time></trkpt><trkpt lat="59.5578435715" lon="31.2805559579"><ele>59.26</ele><time>2026-09-02T20:13:32Z</time></trkpt><trkpt lat="59.5578610059" lon="31.2806190737"><ele>59.26</ele><time>2026-09-02T20:13:52Z</time></trkpt><trkpt lat="59.5578764286" lon="31.2808309682"><ele>59.26</ele><time>2026-09-02T20:14:07Z</time></trkpt><trkpt lat="59.5578494389" lon="31.2810297869"><ele>58.30</ele><time>2026-09-02T20:14:19Z</time></trkpt><trkpt lat="59.5578247122" lon="31.2812294438"><ele>58.30</ele><time>2026-09-02T20:14:34Z</time></trkpt><trkpt lat="59.5578410570" lon="31.2813112512"><ele>58.30</ele><time>2026-09-02T20:14:46Z</time></trkpt><trkpt lat="59.5579209365" lon="31.2813438568"><ele>78.97</ele><time>2026-09-02T20:15:36Z</time></trkpt><trkpt lat="59.5579012390" lon="31.2813368160"><ele>78.97</ele><time>2026-09-02T20:15:37Z</time></trkpt><trkpt lat="59.5578938629" lon="31.2813303620"><ele>76.08</ele><time>2026-09-02T20:15:44Z</time></trkpt><trkpt lat="59.5578969643" lon="31.2813446950"><ele>73.20</ele><time>2026-09-02T20:15:50Z</time></trkpt><trkpt lat="59.5579071064" lon="31.2813503109"><ele>69.83</ele><time>2026-09-02T20:15:58Z</time></trkpt><trkpt lat="59.5579108782" lon="31.2813388277"><ele>66.47</ele><time>2026-09-02T20:16:08Z</time></trkpt><trkpt lat="59.5578402188" lon="31.2813215610"><ele>63.58</ele><time>2026-09-02T20:16:21Z</time></trkpt><trkpt lat="59.5577899273" lon="31.2812794000"><ele>60.22</ele><time>2026-09-02T20:16:39Z</time></trkpt><trkpt lat="59.5577741694" lon="31.2812926434"><ele>58.78</ele><time>2026-09-02T20:17:01Z</time></trkpt><trkpt lat="59.5578014944" lon="31.2814217247"><ele>57.34</ele><time>2026-09-02T20:17:16Z</time></trkpt><trkpt lat="59.5578304958" lon="31.2815430947"><ele>57.34</ele><time>2026-09-02T20:17:38Z</time></trkpt><trkpt lat="59.5578421466" lon="31.2815935537"><ele>57.34</ele><time>2026-09-02T20:18:02Z</time></trkpt><trkpt lat="59.5578246284" lon="31.2815854233"><ele>57.34</ele><time>2026-09-02T20:18:29Z</time></trkpt><trkpt lat="59.5578169171" lon="31.2815793045"><ele>57.34</ele><time>2026-09-02T20:19:07Z</time></trkpt><trkpt lat="59.5578325912" lon="31.2815300189"><ele>57.34</ele><time>2026-09-02T20:19:39Z</time></trkpt><trkpt lat="59.5578242093" lon="31.2815068010"><ele>57.34</ele><time>2026-09-02T20:20:10Z</time></trkpt><trkpt lat="59.5578419790" lon="31.2815125007"><ele>57.34</ele><time>2026-09-02T20:20:39Z</time></trkpt><trkpt lat="59.5578597486" lon="31.2815154344"><ele>57.34</ele><time>2026-09-02T20:21:00Z</time></trkpt><trkpt lat="59.5579074416" lon="31.2815072201"><ele>57.34</ele><time>2026-09-02T20:21:17Z</time></trkpt><trkpt lat="59.5579101238" lon="31.2815038674"><ele>57.34</ele><time>2026-09-02T20:21:45Z</time></trkpt><trkpt lat="59.5579422265" lon="31.2814829126"><ele>57.34</ele><time>2026-09-02T20:22:04Z</time></trkpt><trkpt lat="59.5579530392" lon="31.2814659812"><ele>57.34</ele><time>2026-09-02T20:22:07Z</time></trkpt><trkpt lat="59.5579547156" lon="31.2814608682"><ele>57.34</ele><time>2026-09-02T20:22:20Z</time></trkpt><trkpt lat="59.5580184180" lon="31.2814689148"><ele>57.34</ele><time>2026-09-02T20:22:34Z</time></trkpt><trkpt lat="59.5580982976" lon="31.2814982515"><ele>57.34</ele><time>2026-09-02T20:22:45Z</time></trkpt><trkpt lat="59.5581643470" lon="31.2815490458"><ele>57.34</ele><time>2026-09-02T20:22:59Z</time></trkpt><trkpt lat="59.5582104474" lon="31.2815881055"><ele>57.34</ele><time>2026-09-02T20:23:13Z</time></trkpt><trkpt lat="59.5582454000" lon="31.2816150952"><ele>57.34</ele><time>2026-09-02T20:23:31Z</time></trkpt><trkpt lat="59.5583044924" lon="31.2814927194"><ele>57.34</ele><time>2026-09-02T20:23:45Z</time></trkpt><trkpt lat="59.5583417080" lon="31.2814819068"><ele>57.34</ele><time>2026-09-02T20:24:00Z</time></trkpt><trkpt lat="59.5584153850" lon="31.2814891152"><ele>57.34</ele><time>2026-09-02T20:24:29Z</time></trkpt><trkpt lat="59.5584069192" lon="31.2814785540"><ele>57.34</ele><time>2026-09-02T20:24:58Z</time></trkpt><trkpt lat="59.5583820250" lon="31.2814875226"><ele>56.86</ele><time>2026-09-02T20:25:19Z</time></trkpt><trkpt lat="59.5583701227" lon="31.2815116625"><ele>56.86</ele><time>2026-09-02T20:25:30Z</time></trkpt><trkpt lat="59.5584123675" lon="31.2815530691"><ele>57.34</ele><time>2026-09-02T20:25:43Z</time></trkpt><trkpt lat="59.5584189054" lon="31.2815239839"><ele>57.34</ele><time>2026-09-02T20:26:09Z</time></trkpt><trkpt lat="59.5585158002" lon="31.2814171985"><ele>57.34</ele><time>2026-09-02T20:26:25Z</time></trkpt><trkpt lat="59.5585962664" lon="31.2813394982"><ele>57.34</ele><time>2026-09-02T20:26:38Z</time></trkpt><trkpt lat="59.5586624835" lon="31.2812374905"><ele>56.86</ele><time>2026-09-02T20:26:54Z</time></trkpt><trkpt lat="59.5587170497" lon="31.2811743747"><ele>56.86</ele><time>2026-09-02T20:27:09Z</time></trkpt><trkpt lat="59.5588086639" lon="31.2811487261"><ele>56.86</ele><time>2026-09-02T20:27:21Z</time></trkpt><trkpt lat="59.5588292833" lon="31.2811864447"><ele>58.30</ele><time>2026-09-02T20:27:36Z</time></trkpt><trkpt lat="59.5588494837" lon="31.2811866123"><ele>58.30</ele><time>2026-09-02T20:28:02Z</time></trkpt><trkpt lat="59.5588505734" lon="31.2811757158"><ele>58.30</ele><time>2026-09-02T20:28:28Z</time></trkpt><trkpt lat="59.5588521659" lon="31.2811777275"><ele>58.30</ele><time>2026-09-02T20:28:55Z</time></trkpt><trkpt lat="59.5588196442" lon="31.2811603770"><ele>57.82</ele><time>2026-09-02T20:29:20Z</time></trkpt><trkpt lat="59.5588087477" lon="31.2811420206"><ele>57.82</ele><time>2026-09-02T20:29:41Z</time></trkpt><trkpt lat="59.5588691812" lon="31.2811119296"><ele>56.86</ele><time>2026-09-02T20:30:05Z</time></trkpt><trkpt lat="59.5588963386" lon="31.2811365724"><ele>56.86</ele><time>2026-09-02T20:30:19Z</time></trkpt><trkpt lat="59.5589433610" lon="31.2812010292"><ele>56.86</ele><time>2026-09-02T20:30:35Z</time></trkpt><trkpt lat="59.5589872822" lon="31.2812977564"><ele>56.86</ele><time>2026-09-02T20:30:52Z</time></trkpt><trkpt lat="59.5590582769" lon="31.2813915499"><ele>56.86</ele><time>2026-09-02T20:31:09Z</time></trkpt><trkpt lat="59.5591394976" lon="31.2814800628"><ele>56.86</ele><time>2026-09-02T20:31:21Z</time></trkpt><trkpt lat="59.5591985062" lon="31.2814097386"><ele>56.86</ele><time>2026-09-02T20:31:33Z</time></trkpt><trkpt lat="59.5592467021" lon="31.2813515682"><ele>56.86</ele><time>2026-09-02T20:31:46Z</time></trkpt><trkpt lat="59.5593570080" lon="31.2812887039"><ele>56.86</ele><time>2026-09-02T20:32:01Z</time></trkpt><trkpt lat="59.5593896974" lon="31.2813352235"><ele>56.86</ele><time>2026-09-02T20:32:16Z</time></trkpt><trkpt lat="59.5594606083" lon="31.2813368160"><ele>56.86</ele><time>2026-09-02T20:32:27Z</time></trkpt><trkpt lat="59.5594739355" lon="31.2813308649"><ele>56.37</ele><time>2026-09-02T20:32:34Z</time></trkpt><trkpt lat="59.5595150907" lon="31.2812889554"><ele>56.37</ele><time>2026-09-02T20:32:38Z</time></trkpt><trkpt lat="59.5596147515" lon="31.2811656576"><ele>56.37</ele><time>2026-09-02T20:32:51Z</time></trkpt><trkpt lat="59.5596409030" lon="31.2811245024"><ele>56.37</ele><time>2026-09-02T20:33:03Z</time></trkpt><trkpt lat="59.5596517995" lon="31.2811137736"><ele>56.37</ele><time>2026-09-02T20:33:24Z</time></trkpt><trkpt lat="59.5596372988" lon="31.2810141966"><ele>56.37</ele><time>2026-09-02T20:33:49Z</time></trkpt><trkpt lat="59.5597307570" lon="31.2810051441"><ele>55.89</ele><time>2026-09-02T20:34:24Z</time></trkpt><trkpt lat="59.5597837307" lon="31.2810234167"><ele>55.89</ele><time>2026-09-02T20:34:58Z</time></trkpt><trkpt lat="59.5597741753" lon="31.2810497358"><ele>55.89</ele><time>2026-09-02T20:35:31Z</time></trkpt><trkpt lat="59.5597800426" lon="31.2810455449"><ele>55.41</ele><time>2026-09-02T20:35:44Z</time></trkpt><trkpt lat="59.5598129835" lon="31.2810114305"><ele>55.41</ele><time>2026-09-02T20:36:01Z</time></trkpt><trkpt lat="59.5598151628" lon="31.2807828560"><ele>54.93</ele><time>2026-09-02T20:36:15Z</time></trkpt><trkpt lat="59.5598670468" lon="31.2805119529"><ele>54.93</ele><time>2026-09-02T20:36:31Z</time></trkpt><trkpt lat="59.5599001553" lon="31.2803432252"><ele>54.93</ele><time>2026-09-02T20:36:44Z</time></trkpt><trkpt lat="59.5599464234" lon="31.2802134734"><ele>54.93</ele><time>2026-09-02T20:36:58Z</time></trkpt><trkpt lat="59.5599636063" lon="31.2801997270"><ele>54.93</ele><time>2026-09-02T20:37:15Z</time></trkpt><trkpt lat="59.5599874947" lon="31.2801762577"><ele>54.93</ele><time>2026-09-02T20:37:42Z</time></trkpt><trkpt lat="59.5600417256" lon="31.2801829632"><ele>54.93</ele><time>2026-09-02T20:38:14Z</time></trkpt><trkpt lat="59.5600250456" lon="31.2801098730"><ele>54.93</ele><time>2026-09-02T20:38:47Z</time></trkpt><trkpt lat="59.5600268897" lon="31.2801092025"><ele>54.93</ele><time>2026-09-02T20:39:09Z</time></trkpt><trkpt lat="59.5600245427" lon="31.2801044248"><ele>54.93</ele><time>2026-09-02T20:39:37Z</time></trkpt><trkpt lat="59.5600274764" lon="31.2801184226"><ele>54.45</ele><time>2026-09-02T20:40:04Z</time></trkpt><trkpt lat="59.5600207709" lon="31.2800956238"><ele>54.45</ele><time>2026-09-02T20:40:30Z</time></trkpt><trkpt lat="59.5600526221" lon="31.2801203504"><ele>54.45</ele><time>2026-09-02T20:40:52Z</time></trkpt><trkpt lat="59.5600526221" lon="31.2801277265"><ele>54.45</ele><time>2026-09-02T20:41:10Z</time></trkpt><trkpt lat="59.5600651950" lon="31.2801196799"><ele>54.45</ele><time>2026-09-02T20:41:36Z</time></trkpt><trkpt lat="59.5601301547" lon="31.2801491842"><ele>54.45</ele><time>2026-09-02T20:41:49Z</time></trkpt><trkpt lat="59.5601854753" lon="31.2801252119"><ele>54.45</ele><time>2026-09-02T20:42:02Z</time></trkpt><trkpt lat="59.5602503512" lon="31.2801635172"><ele>54.45</ele><time>2026-09-02T20:42:13Z</time></trkpt><trkpt lat="59.5603195019" lon="31.2801872380"><ele>54.45</ele><time>2026-09-02T20:42:23Z</time></trkpt><trkpt lat="59.5603912510" lon="31.2802126352"><ele>53.97</ele><time>2026-09-02T20:42:33Z</time></trkpt><trkpt lat="59.5604861341" lon="31.2802845519"><ele>53.97</ele><time>2026-09-02T20:42:45Z</time></trkpt><trkpt lat="59.5604963601" lon="31.2802853063"><ele>53.97</ele><time>2026-09-02T20:42:46Z</time></trkpt><trkpt lat="59.5605329052" lon="31.2802944425"><ele>53.97</ele><time>2026-09-02T20:42:58Z</time></trkpt><trkpt lat="59.5605638344" lon="31.2802853901"><ele>53.97</ele><time>2026-09-02T20:43:07Z</time></trkpt><trkpt lat="59.5605981164" lon="31.2803173251"><ele>53.97</ele><time>2026-09-02T20:43:20Z</time></trkpt><trkpt lat="59.5606366731" lon="31.2803296465"><ele>53.97</ele><time>2026-09-02T20:43:37Z</time></trkpt><trkpt lat="59.5606439654" lon="31.2803257070"><ele>53.97</ele><time>2026-09-02T20:43:54Z</time></trkpt><trkpt lat="59.5606791694" lon="31.2803951092"><ele>53.97</ele><time>2026-09-02T20:44:11Z</time></trkpt><trkpt lat="59.5607431233" lon="31.2804444786"><ele>53.97</ele><time>2026-09-02T20:44:25Z</time></trkpt><trkpt lat="59.5607860386" lon="31.2804195005"><ele>53.97</ele><time>2026-09-02T20:44:36Z</time></trkpt><trkpt lat="59.5608612243" lon="31.2804229371"><ele>53.49</ele><time>2026-09-02T20:44:48Z</time></trkpt><trkpt lat="59.5608979370" lon="31.2803948577"><ele>53.49</ele><time>2026-09-02T20:45:01Z</time></trkpt><trkpt lat="59.5609578677" lon="31.2803779263"><ele>53.49</ele><time>2026-09-02T20:45:11Z</time></trkpt><trkpt lat="59.5610024594" lon="31.2803578097"><ele>53.49</ele><time>2026-09-02T20:45:20Z</time></trkpt><trkpt lat="59.5610315446" lon="31.2803397886"><ele>53.49</ele><time>2026-09-02T20:45:25Z</time></trkpt><trkpt lat="59.5610954147" lon="31.2803655211"><ele>53.49</ele><time>2026-09-02T20:45:38Z</time></trkpt><trkpt lat="59.5611474663" lon="31.2803883199"><ele>53.01</ele><time>2026-09-02T20:45:51Z</time></trkpt><trkpt lat="59.5612281002" lon="31.2803857215"><ele>53.01</ele><time>2026-09-02T20:46:03Z</time></trkpt><trkpt lat="59.5612903778" lon="31.2803911697"><ele>53.01</ele><time>2026-09-02T20:46:18Z</time></trkpt><trkpt lat="59.5613347180" lon="31.2804220151"><ele>53.01</ele><time>2026-09-02T20:46:29Z</time></trkpt><trkpt lat="59.5613404177" lon="31.2804118730"><ele>53.01</ele><time>2026-09-02T20:46:52Z</time></trkpt><trkpt lat="59.5613479614" lon="31.2803826202"><ele>52.53</ele><time>2026-09-02T20:47:37Z</time></trkpt><trkpt lat="59.5613342151" lon="31.2803894933"><ele>52.53</ele><time>2026-09-02T20:48:07Z</time></trkpt><trkpt lat="59.5613231510" lon="31.2803927623"><ele>52.53</ele><time>2026-09-02T20:48:34Z</time></trkpt><trkpt lat="59.5613187086" lon="31.2803961150"><ele>52.53</ele><time>2026-09-02T20:48:59Z</time></trkpt><trkpt lat="59.5613732748" lon="31.2803588156"><ele>52.53</ele><time>2026-09-02T20:49:12Z</time></trkpt><trkpt lat="59.5614084788" lon="31.2803322449"><ele>52.53</ele><time>2026-09-02T20:49:27Z</time></trkpt><trkpt lat="59.5614028629" lon="31.2803764176"><ele>52.53</ele><time>2026-09-02T20:49:41Z</time></trkpt><trkpt lat="59.5614766236" lon="31.2803790160"><ele>52.53</ele><time>2026-09-02T20:49:52Z</time></trkpt><trkpt lat="59.5615242328" lon="31.2803860568"><ele>52.53</ele><time>2026-09-02T20:50:07Z</time></trkpt><trkpt lat="59.5616172720" lon="31.2802593224"><ele>52.53</ele><time>2026-09-02T20:50:22Z</time></trkpt><trkpt lat="59.5617243927" lon="31.2801384553"><ele>52.53</ele><time>2026-09-02T20:50:35Z</time></trkpt><trkpt lat="59.5617223810" lon="31.2801371980"><ele>52.53</ele><time>2026-09-02T20:50:57Z</time></trkpt><trkpt lat="59.5617220458" lon="31.2801294029"><ele>52.53</ele><time>2026-09-02T20:51:24Z</time></trkpt><trkpt lat="59.5617318526" lon="31.2800772674"><ele>53.49</ele><time>2026-09-02T20:51:49Z</time></trkpt><trkpt lat="59.5617355406" lon="31.2800615933"><ele>53.49</ele><time>2026-09-02T20:52:23Z</time></trkpt><trkpt lat="59.5617664699" lon="31.2800647784"><ele>53.49</ele><time>2026-09-02T20:52:40Z</time></trkpt><trkpt lat="59.5619030949" lon="31.2800590787"><ele>53.49</ele><time>2026-09-02T20:52:56Z</time></trkpt><trkpt lat="59.5619635284" lon="31.2800113019"><ele>53.49</ele><time>2026-09-02T20:53:09Z</time></trkpt><trkpt lat="59.5620486885" lon="31.2798542250"><ele>53.49</ele><time>2026-09-02T20:53:25Z</time></trkpt><trkpt lat="59.5620426536" lon="31.2798561528"><ele>53.49</ele><time>2026-09-02T20:53:45Z</time></trkpt><trkpt lat="59.5620347746" lon="31.2798431609"><ele>53.49</ele><time>2026-09-02T20:54:12Z</time></trkpt><trkpt lat="59.5620288234" lon="31.2798477709"><ele>53.49</ele><time>2026-09-02T20:54:36Z</time></trkpt><trkpt lat="59.5620467607" lon="31.2799678836"><ele>53.49</ele><time>2026-09-02T20:54:50Z</time></trkpt><trkpt lat="59.5620700624" lon="31.2800024170"><ele>53.49</ele><time>2026-09-02T20:55:09Z</time></trkpt><trkpt lat="59.5620645303" lon="31.2800050154"><ele>53.49</ele><time>2026-09-02T20:55:30Z</time></trkpt><trkpt lat="59.5620674640" lon="31.2800087035"><ele>52.05</ele><time>2026-09-02T20:55:37Z</time></trkpt><trkpt lat="59.5620702300" lon="31.2800133973"><ele>52.05</ele><time>2026-09-02T20:56:00Z</time></trkpt><trkpt lat="59.5620725770" lon="31.2800182588"><ele>52.05</ele><time>2026-09-02T20:56:27Z</time></trkpt><trkpt lat="59.5620699786" lon="31.2800197676"><ele>52.53</ele><time>2026-09-02T20:56:50Z</time></trkpt><trkpt lat="59.5620671287" lon="31.2800112180"><ele>52.53</ele><time>2026-09-02T20:57:14Z</time></trkpt><trkpt lat="59.5620682184" lon="31.2799940351"><ele>52.53</ele><time>2026-09-02T20:57:36Z</time></trkpt><trkpt lat="59.5620702300" lon="31.2799844798"><ele>52.53</ele><time>2026-09-02T20:58:02Z</time></trkpt><trkpt lat="59.5620628539" lon="31.2799804565"><ele>52.53</ele><time>2026-09-02T20:58:27Z</time></trkpt><trkpt lat="59.5620652009" lon="31.2799836416"><ele>52.53</ele><time>2026-09-02T20:58:49Z</time></trkpt><trkpt lat="59.5620391332" lon="31.2798663788"><ele>52.53</ele><time>2026-09-02T20:59:03Z</time></trkpt><trkpt lat="59.5620624349" lon="31.2797978148"><ele>52.53</ele><time>2026-09-02T20:59:14Z</time></trkpt><trkpt lat="59.5620580763" lon="31.2797761057"><ele>53.01</ele><time>2026-09-02T20:59:28Z</time></trkpt><trkpt lat="59.5620418154" lon="31.2797476072"><ele>53.01</ele><time>2026-09-02T20:59:54Z</time></trkpt><trkpt lat="59.5620605908" lon="31.2797538098"><ele>53.01</ele><time>2026-09-02T21:00:33Z</time></trkpt><trkpt lat="59.5620481018" lon="31.2797546480"><ele>53.49</ele><time>2026-09-02T21:00:59Z</time></trkpt><trkpt lat="59.5620356966" lon="31.2797363754"><ele>53.49</ele><time>2026-09-02T21:01:33Z</time></trkpt><trkpt lat="59.5620338526" lon="31.2797289994"><ele>53.49</ele><time>2026-09-02T21:02:00Z</time></trkpt><trkpt lat="59.5620286558" lon="31.2797193602"><ele>53.49</ele><time>2026-09-02T21:02:23Z</time></trkpt><trkpt lat="59.5620512869" lon="31.2796675600"><ele>53.49</ele><time>2026-09-02T21:02:35Z</time></trkpt><trkpt lat="59.5620575733" lon="31.2795052864"><ele>53.49</ele><time>2026-09-02T21:02:50Z</time></trkpt><trkpt lat="59.5621131454" lon="31.2793814018"><ele>53.97</ele><time>2026-09-02T21:03:04Z</time></trkpt><trkpt lat="59.5621725731" lon="31.2792266719"><ele>53.97</ele><time>2026-09-02T21:03:18Z</time></trkpt><trkpt lat="59.5622329228" lon="31.2791230716"><ele>53.97</ele><time>2026-09-02T21:03:37Z</time></trkpt><trkpt lat="59.5622671209" lon="31.2790185492"><ele>53.97</ele><time>2026-09-02T21:03:46Z</time></trkpt><trkpt lat="59.5623293146" lon="31.2787416950"><ele>53.97</ele><time>2026-09-02T21:04:00Z</time></trkpt><trkpt lat="59.5624085236" lon="31.2785905693"><ele>53.97</ele><time>2026-09-02T21:04:15Z</time></trkpt><trkpt lat="59.5624647662" lon="31.2785305548"><ele>53.97</ele><time>2026-09-02T21:04:28Z</time></trkpt><trkpt lat="59.5625221822" lon="31.2785387691"><ele>53.97</ele><time>2026-09-02T21:04:42Z</time></trkpt><trkpt lat="59.5625776704" lon="31.2786243483"><ele>53.97</ele><time>2026-09-02T21:04:57Z</time></trkpt><trkpt lat="59.5626201667" lon="31.2787497416"><ele>53.49</ele><time>2026-09-02T21:05:11Z</time></trkpt><trkpt lat="59.5626443066" lon="31.2787960935"><ele>53.49</ele><time>2026-09-02T21:05:25Z</time></trkpt><trkpt lat="59.5626728889" lon="31.2788701896"><ele>53.49</ele><time>2026-09-02T21:05:38Z</time></trkpt><trkpt lat="59.5626770798" lon="31.2789152842"><ele>53.49</ele><time>2026-09-02T21:05:41Z</time></trkpt><trkpt lat="59.5626978669" lon="31.2788985204"><ele>53.49</ele><time>2026-09-02T21:05:49Z</time></trkpt><trkpt lat="59.5627242699" lon="31.2789996061"><ele>53.49</ele><time>2026-09-02T21:06:00Z</time></trkpt><trkpt lat="59.5628668461" lon="31.2791468762"><ele>53.49</ele><time>2026-09-02T21:06:15Z</time></trkpt><trkpt lat="59.5629422832" lon="31.2791929767"><ele>53.49</ele><time>2026-09-02T21:06:28Z</time></trkpt><trkpt lat="59.5630464703" lon="31.2791768834"><ele>53.49</ele><time>2026-09-02T21:06:43Z</time></trkpt><trkpt lat="59.5631352346" lon="31.2791453674"><ele>53.01</ele><time>2026-09-02T21:06:54Z</time></trkpt><trkpt lat="59.5631639846" lon="31.2791296095"><ele>52.53</ele><time>2026-09-02T21:07:10Z</time></trkpt><trkpt lat="59.5632140245" lon="31.2791183777"><ele>52.53</ele><time>2026-09-02T21:07:25Z</time></trkpt><trkpt lat="59.5632693451" lon="31.2790751271"><ele>52.05</ele><time>2026-09-02T21:07:42Z</time></trkpt><trkpt lat="59.5633698441" lon="31.2790235784"><ele>51.57</ele><time>2026-09-02T21:07:59Z</time></trkpt><trkpt lat="59.5634179562" lon="31.2790636439"><ele>51.57</ele><time>2026-09-02T21:08:10Z</time></trkpt><trkpt lat="59.5634798985" lon="31.2790441979"><ele>51.57</ele><time>2026-09-02T21:08:22Z</time></trkpt><trkpt lat="59.5635529887" lon="31.2789934035"><ele>51.57</ele><time>2026-09-02T21:08:40Z</time></trkpt><trkpt lat="59.5635771286" lon="31.2789646536"><ele>51.57</ele><time>2026-09-02T21:09:01Z</time></trkpt><trkpt lat="59.5636037830" lon="31.2789094169"><ele>51.57</ele><time>2026-09-02T21:09:24Z</time></trkpt><trkpt lat="59.5636560861" lon="31.2787256856"><ele>51.09</ele><time>2026-09-02T21:09:40Z</time></trkpt><trkpt lat="59.5636824891" lon="31.2786079198"><ele>51.09</ele><time>2026-09-02T21:10:07Z</time></trkpt><trkpt lat="59.5636960678" lon="31.2786073331"><ele>50.61</ele><time>2026-09-02T21:10:30Z</time></trkpt><trkpt lat="59.5636885241" lon="31.2785850372"><ele>50.61</ele><time>2026-09-02T21:10:52Z</time></trkpt><trkpt lat="59.5637015998" lon="31.2785697822"><ele>50.61</ele><time>2026-09-02T21:11:20Z</time></trkpt><trkpt lat="59.5637070481" lon="31.2785544433"><ele>50.61</ele><time>2026-09-02T21:11:46Z</time></trkpt><trkpt lat="59.5637096465" lon="31.2785550300"><ele>50.61</ele><time>2026-09-02T21:12:17Z</time></trkpt><trkpt lat="59.5637088083" lon="31.2785542756"><ele>50.61</ele><time>2026-09-02T21:12:52Z</time></trkpt><trkpt lat="59.5637587644" lon="31.2785039004"><ele>50.61</ele><time>2026-09-02T21:13:05Z</time></trkpt><trkpt lat="59.5638190303" lon="31.2784435507"><ele>50.61</ele><time>2026-09-02T21:13:20Z</time></trkpt><trkpt lat="59.5639024302" lon="31.2783909962"><ele>50.61</ele><time>2026-09-02T21:13:37Z</time></trkpt><trkpt lat="59.5639954694" lon="31.2783434708"><ele>50.13</ele><time>2026-09-02T21:13:52Z</time></trkpt><trkpt lat="59.5640292484" lon="31.2783255335"><ele>50.13</ele><time>2026-09-02T21:14:11Z</time></trkpt><trkpt lat="59.5641099662" lon="31.2781988829"><ele>49.65</ele><time>2026-09-02T21:14:24Z</time></trkpt><trkpt lat="59.5641840622" lon="31.2780869007"><ele>49.65</ele><time>2026-09-02T21:14:39Z</time></trkpt><trkpt lat="59.5643078629" lon="31.2780729868"><ele>49.65</ele><time>2026-09-02T21:14:53Z</time></trkpt><trkpt lat="59.5643820427" lon="31.2781236134"><ele>49.65</ele><time>2026-09-02T21:15:05Z</time></trkpt><trkpt lat="59.5644135587" lon="31.2782100309"><ele>49.65</ele><time>2026-09-02T21:15:15Z</time></trkpt><trkpt lat="59.5644826256" lon="31.2782999687"><ele>49.65</ele><time>2026-09-02T21:15:31Z</time></trkpt><trkpt lat="59.5645471662" lon="31.2782840431"><ele>49.65</ele><time>2026-09-02T21:15:44Z</time></trkpt><trkpt lat="59.5646282192" lon="31.2782623339"><ele>49.65</ele><time>2026-09-02T21:15:56Z</time></trkpt><trkpt lat="59.5646761637" lon="31.2782794330"><ele>49.65</ele><time>2026-09-02T21:16:09Z</time></trkpt><trkpt lat="59.5647697058" lon="31.2781907525"><ele>49.65</ele><time>2026-09-02T21:16:23Z</time></trkpt><trkpt lat="59.5648375992" lon="31.2781340070"><ele>49.65</ele><time>2026-09-02T21:16:39Z</time></trkpt><trkpt lat="59.5648760721" lon="31.2780773453"><ele>49.65</ele><time>2026-09-02T21:16:55Z</time></trkpt><trkpt lat="59.5649937540" lon="31.2780328374"><ele>49.16</ele><time>2026-09-02T21:17:13Z</time></trkpt><trkpt lat="59.5650482364" lon="31.2780096196"><ele>49.16</ele><time>2026-09-02T21:17:30Z</time></trkpt><trkpt lat="59.5651375037" lon="31.2779477611"><ele>49.16</ele><time>2026-09-02T21:17:45Z</time></trkpt><trkpt lat="59.5652817562" lon="31.2778132316"><ele>49.16</ele><time>2026-09-02T21:18:01Z</time></trkpt><trkpt lat="59.5653005317" lon="31.2778082862"><ele>50.61</ele><time>2026-09-02T21:18:16Z</time></trkpt><trkpt lat="59.5653295331" lon="31.2778018322"><ele>50.61</ele><time>2026-09-02T21:18:29Z</time></trkpt><trkpt lat="59.5653333049" lon="31.2778027542"><ele>51.09</ele><time>2026-09-02T21:18:45Z</time></trkpt><trkpt lat="59.5653257612" lon="31.2777068652"><ele>51.09</ele><time>2026-09-02T21:19:02Z</time></trkpt><trkpt lat="59.5653157029" lon="31.2777080387"><ele>50.61</ele><time>2026-09-02T21:19:37Z</time></trkpt><trkpt lat="59.5653359871" lon="31.2777364533"><ele>50.61</ele><time>2026-09-02T21:20:16Z</time></trkpt><trkpt lat="59.5653483924" lon="31.2777391355"><ele>50.13</ele><time>2026-09-02T21:20:51Z</time></trkpt><trkpt lat="59.5653508231" lon="31.2777361181"><ele>50.13</ele><time>2026-09-02T21:21:16Z</time></trkpt><trkpt lat="59.5653495658" lon="31.2777309213"><ele>50.13</ele><time>2026-09-02T21:21:45Z</time></trkpt><trkpt lat="59.5653502364" lon="31.2777201086"><ele>50.13</ele><time>2026-09-02T21:22:05Z</time></trkpt><trkpt lat="59.5653443690" lon="31.2777126487"><ele>50.13</ele><time>2026-09-02T21:22:22Z</time></trkpt><trkpt lat="59.5653589536" lon="31.2777081225"><ele>50.13</ele><time>2026-09-02T21:22:58Z</time></trkpt><trkpt lat="59.5653379150" lon="31.2776455935"><ele>50.13</ele><time>2026-09-02T21:23:25Z</time></trkpt><trkpt lat="59.5653637312" lon="31.2776152510"><ele>48.68</ele><time>2026-09-02T21:23:52Z</time></trkpt><trkpt lat="59.5653574448" lon="31.2776336074"><ele>48.68</ele><time>2026-09-02T21:24:13Z</time></trkpt><trkpt lat="59.5653522480" lon="31.2776036840"><ele>48.68</ele><time>2026-09-02T21:24:33Z</time></trkpt><trkpt lat="59.5653539244" lon="31.2775985710"><ele>48.68</ele><time>2026-09-02T21:24:56Z</time></trkpt><trkpt lat="59.5653480571" lon="31.2775942963"><ele>48.68</ele><time>2026-09-02T21:25:21Z</time></trkpt><trkpt lat="59.5653514937" lon="31.2775868364"><ele>48.68</ele><time>2026-09-02T21:25:40Z</time></trkpt><trkpt lat="59.5653547626" lon="31.2775967270"><ele>48.68</ele><time>2026-09-02T21:26:02Z</time></trkpt><trkpt lat="59.5653646532" lon="31.2776022591"><ele>48.68</ele><time>2026-09-02T21:26:25Z</time></trkpt><trkpt lat="59.5653691795" lon="31.2776543945"><ele>48.68</ele><time>2026-09-02T21:26:48Z</time></trkpt><trkpt lat="59.5653568581" lon="31.2776742596"><ele>49.65</ele><time>2026-09-02T21:27:08Z</time></trkpt><trkpt lat="59.5653582830" lon="31.2776298355"><ele>49.65</ele><time>2026-09-02T21:27:25Z</time></trkpt><trkpt lat="59.5654092450" lon="31.2776452582"><ele>49.65</ele><time>2026-09-02T21:27:37Z</time></trkpt><trkpt lat="59.5654861908" lon="31.2776490301"><ele>49.65</ele><time>2026-09-02T21:27:49Z</time></trkpt><trkpt lat="59.5655379910" lon="31.2777073681"><ele>49.65</ele><time>2026-09-02T21:28:05Z</time></trkpt><trkpt lat="59.5655763801" lon="31.2777532171"><ele>49.65</ele><time>2026-09-02T21:28:16Z</time></trkpt><trkpt lat="59.5655988436" lon="31.2777596712"><ele>49.65</ele><time>2026-09-02T21:28:30Z</time></trkpt><trkpt lat="59.5656389929" lon="31.2777502835"><ele>49.65</ele><time>2026-09-02T21:28:40Z</time></trkpt><trkpt lat="59.5656613726" lon="31.2777400576"><ele>49.65</ele><time>2026-09-02T21:28:55Z</time></trkpt><trkpt lat="59.5657104068" lon="31.2777662091"><ele>49.16</ele><time>2026-09-02T21:29:07Z</time></trkpt><trkpt lat="59.5657217223" lon="31.2777771056"><ele>49.16</ele><time>2026-09-02T21:29:24Z</time></trkpt><trkpt lat="59.5657547470" lon="31.2777852360"><ele>49.16</ele><time>2026-09-02T21:29:56Z</time></trkpt><trkpt lat="59.5657521486" lon="31.2777671311"><ele>49.16</ele><time>2026-09-02T21:30:29Z</time></trkpt><trkpt lat="59.5657622069" lon="31.2777140737"><ele>49.16</ele><time>2026-09-02T21:30:43Z</time></trkpt><trkpt lat="59.5657433476" lon="31.2776303384"><ele>49.16</ele><time>2026-09-02T21:30:47Z</time></trkpt><trkpt lat="59.5657285955" lon="31.2774754409"><ele>49.16</ele><time>2026-09-02T21:30:59Z</time></trkpt><trkpt lat="59.5657839999" lon="31.2773900293"><ele>49.16</ele><time>2026-09-02T21:31:15Z</time></trkpt><trkpt lat="59.5658145938" lon="31.2773681525"><ele>49.16</ele><time>2026-09-02T21:31:26Z</time></trkpt><trkpt lat="59.5658570062" lon="31.2773021869"><ele>49.16</ele><time>2026-09-02T21:31:39Z</time></trkpt><trkpt lat="59.5659285039" lon="31.2772446033"><ele>49.16</ele><time>2026-09-02T21:31:51Z</time></trkpt><trkpt lat="59.5660061203" lon="31.2772969902"><ele>48.68</ele><time>2026-09-02T21:32:06Z</time></trkpt><trkpt lat="59.5660734270" lon="31.2773039471"><ele>48.68</ele><time>2026-09-02T21:32:18Z</time></trkpt><trkpt lat="59.5661628619" lon="31.2774410751"><ele>48.68</ele><time>2026-09-02T21:32:34Z</time></trkpt><trkpt lat="59.5662137400" lon="31.2773939688"><ele>48.68</ele><time>2026-09-02T21:32:48Z</time></trkpt><trkpt lat="59.5662439987" lon="31.2774011772"><ele>48.68</ele><time>2026-09-02T21:33:17Z</time></trkpt><trkpt lat="59.5662453398" lon="31.2773989979"><ele>48.68</ele><time>2026-09-02T21:33:35Z</time></trkpt><trkpt lat="59.5662412327" lon="31.2773990817"><ele>48.68</ele><time>2026-09-02T21:33:48Z</time></trkpt><trkpt lat="59.5662448369" lon="31.2773849163"><ele>48.68</ele><time>2026-09-02T21:34:06Z</time></trkpt><trkpt lat="59.5662559848" lon="31.2773660570"><ele>48.68</ele><time>2026-09-02T21:34:35Z</time></trkpt><trkpt lat="59.5662492793" lon="31.2773735169"><ele>48.20</ele><time>2026-09-02T21:35:05Z</time></trkpt><trkpt lat="59.5662336051" lon="31.2774184439"><ele>48.20</ele><time>2026-09-02T21:35:19Z</time></trkpt><trkpt lat="59.5662610140" lon="31.2774815597"><ele>48.20</ele><time>2026-09-02T21:35:45Z</time></trkpt><trkpt lat="59.5662499499" lon="31.2774720043"><ele>48.20</ele><time>2026-09-02T21:35:59Z</time></trkpt><trkpt lat="59.5662424061" lon="31.2774412427"><ele>48.20</ele><time>2026-09-02T21:36:15Z</time></trkpt><trkpt lat="59.5662508719" lon="31.2774367165"><ele>48.20</ele><time>2026-09-02T21:36:44Z</time></trkpt><trkpt lat="59.5662414003" lon="31.2773403246"><ele>48.20</ele><time>2026-09-02T21:36:57Z</time></trkpt><trkpt lat="59.5662432443" lon="31.2772239000"><ele>48.20</ele><time>2026-09-02T21:37:09Z</time></trkpt><trkpt lat="59.5661991555" lon="31.2771055475"><ele>48.20</ele><time>2026-09-02T21:37:19Z</time></trkpt><trkpt lat="59.5661330223" lon="31.2770287693"><ele>48.20</ele><time>2026-09-02T21:37:30Z</time></trkpt><trkpt lat="59.5660798810" lon="31.2769410107"><ele>48.20</ele><time>2026-09-02T21:37:42Z</time></trkpt><trkpt lat="59.5660559926" lon="31.2769114226"><ele>47.72</ele><time>2026-09-02T21:37:57Z</time></trkpt><trkpt lat="59.5660426654" lon="31.2769136857"><ele>47.72</ele><time>2026-09-02T21:38:10Z</time></trkpt><trkpt lat="59.5660535619" lon="31.2769280188"><ele>47.72</ele><time>2026-09-02T21:38:27Z</time></trkpt><trkpt lat="59.5660540648" lon="31.2769203912"><ele>47.72</ele><time>2026-09-02T21:38:40Z</time></trkpt><trkpt lat="59.5660182741" lon="31.2769053876"><ele>47.72</ele><time>2026-09-02T21:38:55Z</time></trkpt><trkpt lat="59.5660171844" lon="31.2768890429"><ele>47.72</ele><time>2026-09-02T21:39:06Z</time></trkpt><trkpt lat="59.5659537334" lon="31.2767284457"><ele>47.72</ele><time>2026-09-02T21:39:18Z</time></trkpt><trkpt lat="59.5658596046" lon="31.2765184790"><ele>47.72</ele><time>2026-09-02T21:39:32Z</time></trkpt><trkpt lat="59.5658480376" lon="31.2764664274"><ele>47.72</ele><time>2026-09-02T21:39:42Z</time></trkpt><trkpt lat="59.5658385660" lon="31.2764644995"><ele>47.72</ele><time>2026-09-02T21:39:43Z</time></trkpt><trkpt lat="59.5658369735" lon="31.2764448859"><ele>47.72</ele><time>2026-09-02T21:39:57Z</time></trkpt><trkpt lat="59.5658238139" lon="31.2764212489"><ele>47.72</ele><time>2026-09-02T21:40:16Z</time></trkpt><trkpt lat="59.5657798089" lon="31.2763744779"><ele>47.72</ele><time>2026-09-02T21:40:48Z</time></trkpt><trkpt lat="59.5657774620" lon="31.2763477396"><ele>47.72</ele><time>2026-09-02T21:41:14Z</time></trkpt><trkpt lat="59.5657711755" lon="31.2763437163"><ele>47.24</ele><time>2026-09-02T21:41:37Z</time></trkpt><trkpt lat="59.5657710079" lon="31.2763337418"><ele>47.24</ele><time>2026-09-02T21:42:05Z</time></trkpt><trkpt lat="59.5657699183" lon="31.2763174810"><ele>47.24</ele><time>2026-09-02T21:42:27Z</time></trkpt><trkpt lat="59.5657635480" lon="31.2763129547"><ele>47.24</ele><time>2026-09-02T21:42:31Z</time></trkpt><trkpt lat="59.5657472033" lon="31.2763165589"><ele>47.24</ele><time>2026-09-02T21:42:33Z</time></trkpt><trkpt lat="59.5657280926" lon="31.2763076741"><ele>47.24</ele><time>2026-09-02T21:42:46Z</time></trkpt><trkpt lat="59.5657260809" lon="31.2763090990"><ele>47.24</ele><time>2026-09-02T21:42:47Z</time></trkpt><trkpt lat="59.5657278411" lon="31.2763039023"><ele>47.24</ele><time>2026-09-02T21:42:59Z</time></trkpt><trkpt lat="59.5657270867" lon="31.2763112783"><ele>47.24</ele><time>2026-09-02T21:43:32Z</time></trkpt><trkpt lat="59.5657085627" lon="31.2763235159"><ele>47.24</ele><time>2026-09-02T21:44:03Z</time></trkpt><trkpt lat="59.5657179505" lon="31.2763060816"><ele>47.24</ele><time>2026-09-02T21:44:36Z</time></trkpt><trkpt lat="59.5657143462" lon="31.2763068359"><ele>47.24</ele><time>2026-09-02T21:44:41Z</time></trkpt><trkpt lat="59.5656870212" lon="31.2762676924"><ele>47.24</ele><time>2026-09-02T21:44:54Z</time></trkpt><trkpt lat="59.5656348858" lon="31.2761508487"><ele>47.24</ele><time>2026-09-02T21:45:06Z</time></trkpt><trkpt lat="59.5655884501" lon="31.2760138884"><ele>47.24</ele><time>2026-09-02T21:45:20Z</time></trkpt><trkpt lat="59.5655617956" lon="31.2759141438"><ele>47.24</ele><time>2026-09-02T21:45:30Z</time></trkpt><trkpt lat="59.5654778928" lon="31.2757206056"><ele>47.24</ele><time>2026-09-02T21:45:41Z</time></trkpt><trkpt lat="59.5654498134" lon="31.2756253872"><ele>47.24</ele><time>2026-09-02T21:45:46Z</time></trkpt><trkpt lat="59.5654148608" lon="31.2754679751"><ele>47.24</ele><time>2026-09-02T21:45:57Z</time></trkpt><trkpt lat="59.5653934870" lon="31.2753634527"><ele>47.24</ele><time>2026-09-02T21:46:04Z</time></trkpt><trkpt lat="59.5653835125" lon="31.2752736825"><ele>47.24</ele><time>2026-09-02T21:46:13Z</time></trkpt><trkpt lat="59.5653715264" lon="31.2751186173"><ele>47.24</ele><time>2026-09-02T21:46:27Z</time></trkpt><trkpt lat="59.5653597079" lon="31.2750355527"><ele>46.76</ele><time>2026-09-02T21:46:45Z</time></trkpt><trkpt lat="59.5653488953" lon="31.2749992590"><ele>46.76</ele><time>2026-09-02T21:47:04Z</time></trkpt><trkpt lat="59.5653180499" lon="31.2749506440"><ele>46.76</ele><time>2026-09-02T21:47:10Z</time></trkpt><trkpt lat="59.5652080793" lon="31.2747611292"><ele>46.76</ele><time>2026-09-02T21:47:24Z</time></trkpt><trkpt lat="59.5651547704" lon="31.2746411003"><ele>46.76</ele><time>2026-09-02T21:47:37Z</time></trkpt><trkpt lat="59.5650926605" lon="31.2744999491"><ele>46.76</ele><time>2026-09-02T21:47:47Z</time></trkpt><trkpt lat="59.5650556963" lon="31.2743943371"><ele>46.76</ele><time>2026-09-02T21:47:59Z</time></trkpt><trkpt lat="59.5650357474" lon="31.2743577082"><ele>46.76</ele><time>2026-09-02T21:48:15Z</time></trkpt><trkpt lat="59.5650267787" lon="31.2743209954"><ele>46.28</ele><time>2026-09-02T21:48:42Z</time></trkpt><trkpt lat="59.5650144573" lon="31.2743000407"><ele>46.28</ele><time>2026-09-02T21:48:57Z</time></trkpt><trkpt lat="59.5650116075" lon="31.2742813490"><ele>46.28</ele><time>2026-09-02T21:49:24Z</time></trkpt><trkpt lat="59.5650219172" lon="31.2742924131"><ele>46.28</ele><time>2026-09-02T21:49:44Z</time></trkpt><trkpt lat="59.5650095120" lon="31.2742942572"><ele>46.28</ele><time>2026-09-02T21:49:58Z</time></trkpt><trkpt lat="59.5650107693" lon="31.2742758170"><ele>46.28</ele><time>2026-09-02T21:50:16Z</time></trkpt><trkpt lat="59.5650030579" lon="31.2742679380"><ele>46.28</ele><time>2026-09-02T21:50:38Z</time></trkpt><trkpt lat="59.5650013816" lon="31.2742751464"><ele>46.28</ele><time>2026-09-02T21:51:02Z</time></trkpt><trkpt lat="59.5649982803" lon="31.2742733862"><ele>46.28</ele><time>2026-09-02T21:51:34Z</time></trkpt><trkpt lat="59.5649919938" lon="31.2742763199"><ele>46.28</ele><time>2026-09-02T21:51:58Z</time></trkpt><trkpt lat="59.5649925806" lon="31.2742748111"><ele>44.84</ele><time>2026-09-02T21:52:22Z</time></trkpt><trkpt lat="59.5649898145" lon="31.2742701173"><ele>44.84</ele><time>2026-09-02T21:52:46Z</time></trkpt><trkpt lat="59.5649889763" lon="31.2742721289"><ele>44.84</ele><time>2026-09-02T21:53:04Z</time></trkpt><trkpt lat="59.5649935864" lon="31.2742762361"><ele>44.84</ele><time>2026-09-02T21:53:28Z</time></trkpt><trkpt lat="59.5649889763" lon="31.2742954306"><ele>44.84</ele><time>2026-09-02T21:53:41Z</time></trkpt><trkpt lat="59.5649628248" lon="31.2743198220"><ele>44.84</ele><time>2026-09-02T21:53:51Z</time></trkpt><trkpt lat="59.5649320632" lon="31.2743592169"><ele>44.84</ele><time>2026-09-02T21:54:03Z</time></trkpt><trkpt lat="59.5648920815" lon="31.2743911520"><ele>44.84</ele><time>2026-09-02T21:54:14Z</time></trkpt><trkpt lat="59.5648845378" lon="31.2744077481"><ele>44.84</ele><time>2026-09-02T21:54:30Z</time></trkpt><trkpt lat="59.5648635831" lon="31.2744035572"><ele>44.84</ele><time>2026-09-02T21:54:58Z</time></trkpt><trkpt lat="59.5648618229" lon="31.2743944209"><ele>44.84</ele><time>2026-09-02T21:55:22Z</time></trkpt><trkpt lat="59.5648540277" lon="31.2744050659"><ele>45.32</ele><time>2026-09-02T21:55:50Z</time></trkpt><trkpt lat="59.5647764951" lon="31.2745548505"><ele>45.32</ele><time>2026-09-02T21:56:03Z</time></trkpt><trkpt lat="59.5646801870" lon="31.2746130209"><ele>45.32</ele><time>2026-09-02T21:56:17Z</time></trkpt><trkpt lat="59.5646205079" lon="31.2746557686"><ele>45.32</ele><time>2026-09-02T21:56:29Z</time></trkpt><trkpt lat="59.5645246189" lon="31.2746952474"><ele>45.32</ele><time>2026-09-02T21:56:42Z</time></trkpt><trkpt lat="59.5644984674" lon="31.2747103348"><ele>45.32</ele><time>2026-09-02T21:56:55Z</time></trkpt><trkpt lat="59.5644389559" lon="31.2747566868"><ele>45.32</ele><time>2026-09-02T21:57:06Z</time></trkpt><trkpt lat="59.5643948670" lon="31.2747705169"><ele>45.32</ele><time>2026-09-02T21:57:16Z</time></trkpt><trkpt lat="59.5643384568" lon="31.2747828383"><ele>45.32</ele><time>2026-09-02T21:57:24Z</time></trkpt><trkpt lat="59.5642447472" lon="31.2748072296"><ele>45.32</ele><time>2026-09-02T21:57:37Z</time></trkpt><trkpt lat="59.5641429070" lon="31.2748581916"><ele>45.32</ele><time>2026-09-02T21:57:49Z</time></trkpt><trkpt lat="59.5641020034" lon="31.2748933956"><ele>45.32</ele><time>2026-09-02T21:58:03Z</time></trkpt><trkpt lat="59.5640458446" lon="31.2749197986"><ele>45.32</ele><time>2026-09-02T21:58:13Z</time></trkpt><trkpt lat="59.5639636181" lon="31.2750225607"><ele>45.32</ele><time>2026-09-02T21:58:26Z</time></trkpt><trkpt lat="59.5639372990" lon="31.2750534900"><ele>44.84</ele><time>2026-09-02T21:58:37Z</time></trkpt><trkpt lat="59.5638554078" lon="31.2751112413"><ele>44.84</ele><time>2026-09-02T21:58:51Z</time></trkpt><trkpt lat="59.5637907833" lon="31.2751672324"><ele>44.84</ele><time>2026-09-02T21:59:04Z</time></trkpt><trkpt lat="59.5637119096" lon="31.2751922105"><ele>44.84</ele><time>2026-09-02T21:59:18Z</time></trkpt><trkpt lat="59.5636629593" lon="31.2752078846"><ele>44.84</ele><time>2026-09-02T21:59:29Z</time></trkpt><trkpt lat="59.5635922160" lon="31.2752464414"><ele>44.84</ele><time>2026-09-02T21:59:42Z</time></trkpt><trkpt lat="59.5635571796" lon="31.2752603553"><ele>44.84</ele><time>2026-09-02T21:59:49Z</time></trkpt><trkpt lat="59.5635479596" lon="31.2752617802"><ele>44.84</ele><time>2026-09-02T22:00:05Z</time></trkpt><trkpt lat="59.5635533240" lon="31.2752685696"><ele>44.36</ele><time>2026-09-02T22:00:35Z</time></trkpt><trkpt lat="59.5635670703" lon="31.2752880156"><ele>44.36</ele><time>2026-09-02T22:00:57Z</time></trkpt><trkpt lat="59.5635357220" lon="31.2753137480"><ele>44.36</ele><time>2026-09-02T22:01:10Z</time></trkpt><trkpt lat="59.5635164436" lon="31.2752881832"><ele>44.36</ele><time>2026-09-02T22:01:33Z</time></trkpt><trkpt lat="59.5635028649" lon="31.2752680667"><ele>44.36</ele><time>2026-09-02T22:02:09Z</time></trkpt><trkpt lat="59.5634783059" lon="31.2752829865"><ele>44.36</ele><time>2026-09-02T22:02:36Z</time></trkpt><trkpt lat="59.5634515677" lon="31.2753285002"><ele>44.36</ele><time>2026-09-02T22:02:52Z</time></trkpt><trkpt lat="59.5633826684" lon="31.2754513789"><ele>44.36</ele><time>2026-09-02T22:03:03Z</time></trkpt><trkpt lat="59.5633908827" lon="31.2754310947"><ele>44.36</ele><time>2026-09-02T22:03:15Z</time></trkpt><trkpt lat="59.5634176210" lon="31.2754139118"><ele>44.36</ele><time>2026-09-02T22:03:25Z</time></trkpt><trkpt lat="59.5634203870" lon="31.2753932923"><ele>44.36</ele><time>2026-09-02T22:03:40Z</time></trkpt><trkpt lat="59.5634219795" lon="31.2753730081"><ele>44.36</ele><time>2026-09-02T22:04:04Z</time></trkpt><trkpt lat="59.5634251647" lon="31.2753363792"><ele>44.36</ele><time>2026-09-02T22:04:19Z</time></trkpt><trkpt lat="59.5634273440" lon="31.2753191125"><ele>44.36</ele><time>2026-09-02T22:04:46Z</time></trkpt><trkpt lat="59.5634180401" lon="31.2753376365"><ele>44.36</ele><time>2026-09-02T22:05:05Z</time></trkpt><trkpt lat="59.5633870270" lon="31.2753886823"><ele>44.36</ele><time>2026-09-02T22:05:17Z</time></trkpt><trkpt lat="59.5633046329" lon="31.2755173445"><ele>44.36</ele><time>2026-09-02T22:05:30Z</time></trkpt><trkpt lat="59.5633030403" lon="31.2755202781"><ele>44.36</ele><time>2026-09-02T22:05:32Z</time></trkpt><trkpt lat="59.5632894617" lon="31.2755778618"><ele>44.36</ele><time>2026-09-02T22:05:44Z</time></trkpt><trkpt lat="59.5632604603" lon="31.2755986489"><ele>44.36</ele><time>2026-09-02T22:06:03Z</time></trkpt><trkpt lat="59.5632254239" lon="31.2755962182"><ele>44.36</ele><time>2026-09-02T22:06:17Z</time></trkpt><trkpt lat="59.5631025452" lon="31.2756693084"><ele>44.36</ele><time>2026-09-02T22:06:30Z</time></trkpt><trkpt lat="59.5630595461" lon="31.2757014949"><ele>44.36</ele><time>2026-09-02T22:06:42Z</time></trkpt><trkpt lat="59.5630222466" lon="31.2757066917"><ele>44.36</ele><time>2026-09-02T22:07:06Z</time></trkpt><trkpt lat="59.5629250165" lon="31.2757180072"><ele>44.36</ele><time>2026-09-02T22:07:23Z</time></trkpt><trkpt lat="59.5628686901" lon="31.2757194322"><ele>44.36</ele><time>2026-09-02T22:07:34Z</time></trkpt><trkpt lat="59.5627580490" lon="31.2758210208"><ele>43.88</ele><time>2026-09-02T22:07:49Z</time></trkpt><trkpt lat="59.5627055783" lon="31.2759286445"><ele>43.88</ele><time>2026-09-02T22:08:02Z</time></trkpt><trkpt lat="59.5626557060" lon="31.2760678679"><ele>43.88</ele><time>2026-09-02T22:08:15Z</time></trkpt><trkpt lat="59.5626376849" lon="31.2761192489"><ele>44.36</ele><time>2026-09-02T22:08:28Z</time></trkpt><trkpt lat="59.5625695400" lon="31.2761939317"><ele>44.36</ele><time>2026-09-02T22:08:43Z</time></trkpt><trkpt lat="59.5625320729" lon="31.2762481626"><ele>44.36</ele><time>2026-09-02T22:08:55Z</time></trkpt><trkpt lat="59.5624511875" lon="31.2762911618"><ele>44.36</ele><time>2026-09-02T22:09:09Z</time></trkpt><trkpt lat="59.5623621717" lon="31.2763937563"><ele>44.36</ele><time>2026-09-02T22:09:22Z</time></trkpt><trkpt lat="59.5623165742" lon="31.2764053233"><ele>44.36</ele><time>2026-09-02T22:09:36Z</time></trkpt><trkpt lat="59.5622961223" lon="31.2764163036"><ele>44.36</ele><time>2026-09-02T22:09:50Z</time></trkpt><trkpt lat="59.5622672886" lon="31.2764175609"><ele>44.36</ele><time>2026-09-02T22:10:08Z</time></trkpt><trkpt lat="59.5622454956" lon="31.2764406111"><ele>44.84</ele><time>2026-09-02T22:10:36Z</time></trkpt><trkpt lat="59.5622183383" lon="31.2764406111"><ele>44.84</ele><time>2026-09-02T22:11:05Z</time></trkpt><trkpt lat="59.5621926058" lon="31.2764048204"><ele>44.84</ele><time>2026-09-02T22:11:20Z</time></trkpt><trkpt lat="59.5621823799" lon="31.2763940077"><ele>44.84</ele><time>2026-09-02T22:11:43Z</time></trkpt><trkpt lat="59.5621624310" lon="31.2763672695"><ele>45.32</ele><time>2026-09-02T22:12:09Z</time></trkpt><trkpt lat="59.5621338487" lon="31.2763677724"><ele>45.32</ele><time>2026-09-02T22:12:24Z</time></trkpt><trkpt lat="59.5621219464" lon="31.2763681076"><ele>45.32</ele><time>2026-09-02T22:12:40Z</time></trkpt><trkpt lat="59.5620589983" lon="31.2763645872"><ele>45.32</ele><time>2026-09-02T22:12:57Z</time></trkpt><trkpt lat="59.5619451720" lon="31.2763581332"><ele>45.32</ele><time>2026-09-02T22:13:11Z</time></trkpt><trkpt lat="59.5619061124" lon="31.2763421237"><ele>45.32</ele><time>2026-09-02T22:13:25Z</time></trkpt><trkpt lat="59.5618170127" lon="31.2763569597"><ele>45.32</ele><time>2026-09-02T22:13:43Z</time></trkpt><trkpt lat="59.5617420785" lon="31.2763759866"><ele>45.32</ele><time>2026-09-02T22:13:55Z</time></trkpt><trkpt lat="59.5616843272" lon="31.2763833627"><ele>45.32</ele><time>2026-09-02T22:14:10Z</time></trkpt><trkpt lat="59.5616440102" lon="31.2763619050"><ele>45.32</ele><time>2026-09-02T22:14:23Z</time></trkpt><trkpt lat="59.5616293419" lon="31.2763228454"><ele>45.32</ele><time>2026-09-02T22:14:35Z</time></trkpt><trkpt lat="59.5616072975" lon="31.2762975320"><ele>45.32</ele><time>2026-09-02T22:14:46Z</time></trkpt><trkpt lat="59.5615644660" lon="31.2762670219"><ele>45.32</ele><time>2026-09-02T22:15:02Z</time></trkpt><trkpt lat="59.5615268312" lon="31.2762636691"><ele>45.32</ele><time>2026-09-02T22:15:17Z</time></trkpt><trkpt lat="59.5614907052" lon="31.2762721349"><ele>45.32</ele><time>2026-09-02T22:15:36Z</time></trkpt><trkpt lat="59.5614379831" lon="31.2763066683"><ele>45.32</ele><time>2026-09-02T22:15:53Z</time></trkpt><trkpt lat="59.5613903739" lon="31.2763590552"><ele>45.32</ele><time>2026-09-02T22:16:08Z</time></trkpt><trkpt lat="59.5613606181" lon="31.2763863802"><ele>45.32</ele><time>2026-09-02T22:16:22Z</time></trkpt><trkpt lat="59.5613289345" lon="31.2764178962"><ele>45.32</ele><time>2026-09-02T22:16:38Z</time></trkpt><trkpt lat="59.5612959098" lon="31.2764942553"><ele>44.84</ele><time>2026-09-02T22:16:51Z</time></trkpt><trkpt lat="59.5612126775" lon="31.2767738756"><ele>43.88</ele><time>2026-09-02T22:17:06Z</time></trkpt><trkpt lat="59.5611100830" lon="31.2770351395"><ele>43.40</ele><time>2026-09-02T22:17:19Z</time></trkpt><trkpt lat="59.5610471349" lon="31.2771425117"><ele>43.40</ele><time>2026-09-02T22:17:35Z</time></trkpt><trkpt lat="59.5609200653" lon="31.2772402447"><ele>43.40</ele><time>2026-09-02T22:17:49Z</time></trkpt><trkpt lat="59.5608629845" lon="31.2772874348"><ele>43.40</ele><time>2026-09-02T22:18:04Z</time></trkpt><trkpt lat="59.5607853681" lon="31.2772870157"><ele>43.40</ele><time>2026-09-02T22:18:16Z</time></trkpt><trkpt lat="59.5607385132" lon="31.2772998400"><ele>43.40</ele><time>2026-09-02T22:18:31Z</time></trkpt><trkpt lat="59.5606900658" lon="31.2773021869"><ele>43.40</ele><time>2026-09-02T22:18:45Z</time></trkpt><trkpt lat="59.5606246032" lon="31.2773068808"><ele>43.40</ele><time>2026-09-02T22:18:58Z</time></trkpt><trkpt lat="59.5606059115" lon="31.2772983313"><ele>43.40</ele><time>2026-09-02T22:19:20Z</time></trkpt><trkpt lat="59.5605688635" lon="31.2773026060"><ele>42.92</ele><time>2026-09-02T22:20:05Z</time></trkpt><trkpt lat="59.5605540276" lon="31.2772992533"><ele>42.92</ele><time>2026-09-02T22:20:32Z</time></trkpt><trkpt lat="59.5605314802" lon="31.2772922963"><ele>42.92</ele><time>2026-09-02T22:20:59Z</time></trkpt><trkpt lat="59.5605031494" lon="31.2772886921"><ele>42.92</ele><time>2026-09-02T22:21:25Z</time></trkpt><trkpt lat="59.5604951866" lon="31.2772889435"><ele>42.92</ele><time>2026-09-02T22:21:49Z</time></trkpt><trkpt lat="59.5604771655" lon="31.2772893626"><ele>42.92</ele><time>2026-09-02T22:22:16Z</time></trkpt><trkpt lat="59.5604692865" lon="31.2772891950"><ele>42.92</ele><time>2026-09-02T22:22:23Z</time></trkpt><trkpt lat="59.5603409596" lon="31.2773072999"><ele>42.92</ele><time>2026-09-02T22:22:36Z</time></trkpt><trkpt lat="59.5602430589" lon="31.2773332000"><ele>42.92</ele><time>2026-09-02T22:22:47Z</time></trkpt><trkpt lat="59.5601999760" lon="31.2773658894"><ele>42.92</ele><time>2026-09-02T22:22:57Z</time></trkpt><trkpt lat="59.5601089485" lon="31.2773899455"><ele>42.92</ele><time>2026-09-02T22:23:08Z</time></trkpt><trkpt lat="59.5600766782" lon="31.2773951422"><ele>42.92</ele><time>2026-09-02T22:23:35Z</time></trkpt><trkpt lat="59.5600760914" lon="31.2774127442"><ele>44.36</ele><time>2026-09-02T22:23:59Z</time></trkpt><trkpt lat="59.5600749180" lon="31.2774301786"><ele>44.36</ele><time>2026-09-02T22:24:32Z</time></trkpt><trkpt lat="59.5600698050" lon="31.2774303462"><ele>44.36</ele><time>2026-09-02T22:25:03Z</time></trkpt><trkpt lat="59.5600636024" lon="31.2774352916"><ele>44.36</ele><time>2026-09-02T22:25:25Z</time></trkpt><trkpt lat="59.5600584056" lon="31.2774374709"><ele>44.36</ele><time>2026-09-02T22:25:51Z</time></trkpt><trkpt lat="59.5600554720" lon="31.2774358783"><ele>44.36</ele><time>2026-09-02T22:26:17Z</time></trkpt><trkpt lat="59.5600485988" lon="31.2774368003"><ele>44.36</ele><time>2026-09-02T22:26:44Z</time></trkpt><trkpt lat="59.5600475930" lon="31.2774374709"><ele>44.36</ele><time>2026-09-02T22:27:07Z</time></trkpt><trkpt lat="59.5600411389" lon="31.2774373032"><ele>44.84</ele><time>2026-09-02T22:27:41Z</time></trkpt><trkpt lat="59.5600337628" lon="31.2774441764"><ele>44.84</ele><time>2026-09-02T22:27:59Z</time></trkpt><trkpt lat="59.5599848125" lon="31.2775238883"><ele>44.84</ele><time>2026-09-02T22:28:10Z</time></trkpt><trkpt lat="59.5599464234" lon="31.2775828131"><ele>44.84</ele><time>2026-09-02T22:28:21Z</time></trkpt><trkpt lat="59.5599168353" lon="31.2775781192"><ele>44.84</ele><time>2026-09-02T22:28:31Z</time></trkpt><trkpt lat="59.5598880015" lon="31.2775844894"><ele>44.84</ele><time>2026-09-02T22:28:44Z</time></trkpt><trkpt lat="59.5598690584" lon="31.2776071206"><ele>44.84</ele><time>2026-09-02T22:28:57Z</time></trkpt><trkpt lat="59.5598212816" lon="31.2776529696"><ele>44.84</ele><time>2026-09-02T22:29:09Z</time></trkpt><trkpt lat="59.5597750973" lon="31.2776989024"><ele>44.84</ele><time>2026-09-02T22:29:22Z</time></trkpt><trkpt lat="59.5597429946" lon="31.2777395546"><ele>44.84</ele><time>2026-09-02T22:29:39Z</time></trkpt><trkpt lat="59.5596902724" lon="31.2777615990"><ele>44.84</ele><time>2026-09-02T22:29:46Z</time></trkpt><trkpt lat="59.5596166793" lon="31.2778331805"><ele>44.84</ele><time>2026-09-02T22:30:01Z</time></trkpt><trkpt lat="59.5595454331" lon="31.2778886687"><ele>45.80</ele><time>2026-09-02T22:30:21Z</time></trkpt><trkpt lat="59.5595342852" lon="31.2778933626"><ele>45.80</ele><time>2026-09-02T22:30:47Z</time></trkpt><trkpt lat="59.5595312677" lon="31.2779018283"><ele>45.80</ele><time>2026-09-02T22:31:18Z</time></trkpt><trkpt lat="59.5595322736" lon="31.2778997328"><ele>45.80</ele><time>2026-09-02T22:31:38Z</time></trkpt><trkpt lat="59.5595371351" lon="31.2778880820"><ele>45.80</ele><time>2026-09-02T22:32:08Z</time></trkpt><trkpt lat="59.5595372189" lon="31.2778911833"><ele>45.80</ele><time>2026-09-02T22:32:35Z</time></trkpt><trkpt lat="59.5595380571" lon="31.2778933626"><ele>45.80</ele><time>2026-09-02T22:33:02Z</time></trkpt><trkpt lat="59.5595374703" lon="31.2779006548"><ele>45.80</ele><time>2026-09-02T22:33:32Z</time></trkpt><trkpt lat="59.5595223829" lon="31.2779070251"><ele>45.80</ele><time>2026-09-02T22:33:39Z</time></trkpt><trkpt lat="59.5594093949" lon="31.2778910995"><ele>45.80</ele><time>2026-09-02T22:33:56Z</time></trkpt><trkpt lat="59.5593202952" lon="31.2779106293"><ele>45.80</ele><time>2026-09-02T22:34:12Z</time></trkpt><trkpt lat="59.5592672378" lon="31.2779452465"><ele>45.80</ele><time>2026-09-02T22:34:25Z</time></trkpt><trkpt lat="59.5592000987" lon="31.2779672071"><ele>45.80</ele><time>2026-09-02T22:34:41Z</time></trkpt><trkpt lat="59.5591837540" lon="31.2779698055"><ele>45.80</ele><time>2026-09-02T22:35:03Z</time></trkpt><trkpt lat="59.5591652300" lon="31.2779665366"><ele>46.28</ele><time>2026-09-02T22:35:31Z</time></trkpt><trkpt lat="59.5591474604" lon="31.2779293209"><ele>46.28</ele><time>2026-09-02T22:35:45Z</time></trkpt><trkpt lat="59.5590456203" lon="31.2778122257"><ele>46.28</ele><time>2026-09-02T22:36:01Z</time></trkpt><trkpt lat="59.5589871146" lon="31.2777251378"><ele>46.76</ele><time>2026-09-02T22:36:21Z</time></trkpt><trkpt lat="59.5588950813" lon="31.2776283268"><ele>46.76</ele><time>2026-09-02T22:36:53Z</time></trkpt><trkpt lat="59.5589051396" lon="31.2776299194"><ele>46.76</ele><time>2026-09-02T22:37:19Z</time></trkpt><trkpt lat="59.5589061454" lon="31.2776208669"><ele>46.76</ele><time>2026-09-02T22:38:04Z</time></trkpt><trkpt lat="59.5589061454" lon="31.2776151672"><ele>46.76</ele><time>2026-09-02T22:38:41Z</time></trkpt><trkpt lat="59.5589088276" lon="31.2776229624"><ele>46.76</ele><time>2026-09-02T22:39:05Z</time></trkpt><trkpt lat="59.5588949975" lon="31.2776561547"><ele>47.24</ele><time>2026-09-02T22:39:49Z</time></trkpt><trkpt lat="59.5588927343" lon="31.2776465993"><ele>47.24</ele><time>2026-09-02T22:40:20Z</time></trkpt><trkpt lat="59.5588945784" lon="31.2776350323"><ele>47.24</ele><time>2026-09-02T22:40:33Z</time></trkpt><trkpt lat="59.5589010324" lon="31.2775155902"><ele>47.24</ele><time>2026-09-02T22:40:47Z</time></trkpt><trkpt lat="59.5589791518" lon="31.2772909552"><ele>47.24</ele><time>2026-09-02T22:41:00Z</time></trkpt><trkpt lat="59.5589973405" lon="31.2771590240"><ele>47.24</ele><time>2026-09-02T22:41:15Z</time></trkpt><trkpt lat="59.5590050519" lon="31.2771404162"><ele>47.24</ele><time>2026-09-02T22:41:45Z</time></trkpt><trkpt lat="59.5590037946" lon="31.2771310285"><ele>47.72</ele><time>2026-09-02T22:42:12Z</time></trkpt><trkpt lat="59.5590038784" lon="31.2771163601"><ele>47.72</ele><time>2026-09-02T22:42:37Z</time></trkpt><trkpt lat="59.5590092428" lon="31.2770760432"><ele>47.72</ele><time>2026-09-02T22:43:07Z</time></trkpt><trkpt lat="59.5590090752" lon="31.2770715170"><ele>47.72</ele><time>2026-09-02T22:43:30Z</time></trkpt><trkpt lat="59.5590041298" lon="31.2770598661"><ele>47.72</ele><time>2026-09-02T22:44:02Z</time></trkpt><trkpt lat="59.5590098295" lon="31.2771130074"><ele>47.72</ele><time>2026-09-02T22:44:20Z</time></trkpt><trkpt lat="59.5590110868" lon="31.2771417573"><ele>48.20</ele><time>2026-09-02T22:44:49Z</time></trkpt><trkpt lat="59.5590120088" lon="31.2771394104"><ele>48.20</ele><time>2026-09-02T22:45:18Z</time></trkpt><trkpt lat="59.5590223186" lon="31.2771387398"><ele>48.20</ele><time>2026-09-02T22:45:46Z</time></trkpt><trkpt lat="59.5589975081" lon="31.2770338822"><ele>48.20</ele><time>2026-09-02T22:46:01Z</time></trkpt><trkpt lat="59.5589664113" lon="31.2768001109"><ele>48.20</ele><time>2026-09-02T22:46:17Z</time></trkpt><trkpt lat="59.5589633100" lon="31.2766920682"><ele>48.20</ele><time>2026-09-02T22:46:31Z</time></trkpt><trkpt lat="59.5589556824" lon="31.2765636574"><ele>48.20</ele><time>2026-09-02T22:46:42Z</time></trkpt><trkpt lat="59.5589256752" lon="31.2764142919"><ele>48.20</ele><time>2026-09-02T22:46:56Z</time></trkpt><trkpt lat="59.5589146111" lon="31.2763686106"><ele>47.24</ele><time>2026-09-02T22:47:10Z</time></trkpt><trkpt lat="59.5588890463" lon="31.2763248570"><ele>47.24</ele><time>2026-09-02T22:47:24Z</time></trkpt><trkpt lat="59.5588545967" lon="31.2762790080"><ele>47.24</ele><time>2026-09-02T22:47:40Z</time></trkpt><trkpt lat="59.5588331390" lon="31.2762613222"><ele>47.24</ele><time>2026-09-02T22:48:13Z</time></trkpt><trkpt lat="59.5588084962" lon="31.2762272079"><ele>47.24</ele><time>2026-09-02T22:48:26Z</time></trkpt><trkpt lat="59.5587904751" lon="31.2762061693"><ele>47.24</ele><time>2026-09-02T22:48:43Z</time></trkpt><trkpt lat="59.5587785728" lon="31.2761728931"><ele>47.24</ele><time>2026-09-02T22:48:57Z</time></trkpt><trkpt lat="59.5587703586" lon="31.2761461549"><ele>47.24</ele><time>2026-09-02T22:49:04Z</time></trkpt><trkpt lat="59.5587116014" lon="31.2760404591"><ele>47.24</ele><time>2026-09-02T22:49:17Z</time></trkpt><trkpt lat="59.5587001182" lon="31.2759993877"><ele>47.24</ele><time>2026-09-02T22:49:40Z</time></trkpt><trkpt lat="59.5586717874" lon="31.2759400439"><ele>47.24</ele><time>2026-09-02T22:49:55Z</time></trkpt><trkpt lat="59.5586634055" lon="31.2758658640"><ele>47.24</ele><time>2026-09-02T22:50:11Z</time></trkpt><trkpt lat="59.5586557779" lon="31.2758626789"><ele>47.24</ele><time>2026-09-02T22:50:30Z</time></trkpt><trkpt lat="59.5586459711" lon="31.2758522015"><ele>47.24</ele><time>2026-09-02T22:51:01Z</time></trkpt><trkpt lat="59.5586539339" lon="31.2758486811"><ele>47.24</ele><time>2026-09-02T22:51:39Z</time></trkpt><trkpt lat="59.5586463902" lon="31.2758276425"><ele>47.24</ele><time>2026-09-02T22:51:51Z</time></trkpt><trkpt lat="59.5586494915" lon="31.2757660355"><ele>47.24</ele><time>2026-09-02T22:52:05Z</time></trkpt><trkpt lat="59.5586572029" lon="31.2757445779"><ele>47.24</ele><time>2026-09-02T22:52:22Z</time></trkpt><trkpt lat="59.5586627349" lon="31.2757462543"><ele>47.24</ele><time>2026-09-02T22:52:44Z</time></trkpt><trkpt lat="59.5586792473" lon="31.2757427339"><ele>47.24</ele><time>2026-09-02T22:52:57Z</time></trkpt><trkpt lat="59.5587061532" lon="31.2757330108"><ele>47.24</ele><time>2026-09-02T22:53:09Z</time></trkpt><trkpt lat="59.5587204862" lon="31.2757029198"><ele>47.24</ele><time>2026-09-02T22:53:23Z</time></trkpt><trkpt lat="59.5587154571" lon="31.2756771035"><ele>47.24</ele><time>2026-09-02T22:53:34Z</time></trkpt><trkpt lat="59.5587197319" lon="31.2756524608"><ele>47.24</ele><time>2026-09-02T22:53:47Z</time></trkpt><trkpt lat="59.5587291196" lon="31.2756288238"><ele>47.24</ele><time>2026-09-02T22:54:02Z</time></trkpt><trkpt lat="59.5587344002" lon="31.2756093778"><ele>47.24</ele><time>2026-09-02T22:54:17Z</time></trkpt><trkpt lat="59.5587494876" lon="31.2755593378"><ele>47.24</ele><time>2026-09-02T22:54:30Z</time></trkpt><trkpt lat="59.5587649103" lon="31.2755199429"><ele>47.24</ele><time>2026-09-02T22:54:48Z</time></trkpt><trkpt lat="59.5587800816" lon="31.2754689809"><ele>47.24</ele><time>2026-09-02T22:55:01Z</time></trkpt><trkpt lat="59.5587784890" lon="31.2754548155"><ele>47.24</ele><time>2026-09-02T22:55:29Z</time></trkpt><trkpt lat="59.5587810874" lon="31.2754448410"><ele>47.24</ele><time>2026-09-02T22:55:48Z</time></trkpt><trkpt lat="59.5587831829" lon="31.2754338607"><ele>47.24</ele><time>2026-09-02T22:56:11Z</time></trkpt><trkpt lat="59.5587818418" lon="31.2754252274"><ele>47.24</ele><time>2026-09-02T22:56:35Z</time></trkpt><trkpt lat="59.5587813389" lon="31.2754186895"><ele>47.24</ele><time>2026-09-02T22:57:02Z</time></trkpt><trkpt lat="59.5588098373" lon="31.2754181866"><ele>47.24</ele><time>2026-09-02T22:57:36Z</time></trkpt><trkpt lat="59.5588553511" lon="31.2754022609"><ele>47.24</ele><time>2026-09-02T22:57:48Z</time></trkpt><trkpt lat="59.5588869508" lon="31.2753870897"><ele>47.24</ele><time>2026-09-02T22:57:54Z</time></trkpt><trkpt lat="59.5589923952" lon="31.2752948888"><ele>47.24</ele><time>2026-09-02T22:58:08Z</time></trkpt><trkpt lat="59.5590089075" lon="31.2752902787"><ele>47.24</ele><time>2026-09-02T22:58:10Z</time></trkpt><trkpt lat="59.5590498950" lon="31.2752804719"><ele>47.24</ele><time>2026-09-02T22:58:23Z</time></trkpt><trkpt lat="59.5591244940" lon="31.2752539851"><ele>47.24</ele><time>2026-09-02T22:58:34Z</time></trkpt><trkpt lat="59.5592202991" lon="31.2752290908"><ele>47.24</ele><time>2026-09-02T22:58:47Z</time></trkpt><trkpt lat="59.5593135059" lon="31.2752473634"><ele>47.24</ele><time>2026-09-02T22:58:59Z</time></trkpt><trkpt lat="59.5593838301" lon="31.2753147539"><ele>47.24</ele><time>2026-09-02T22:59:07Z</time></trkpt><trkpt lat="59.5594625361" lon="31.2753688172"><ele>47.24</ele><time>2026-09-02T22:59:20Z</time></trkpt><trkpt lat="59.5595523901" lon="31.2754238024"><ele>47.24</ele><time>2026-09-02T22:59:31Z</time></trkpt><trkpt lat="59.5596210379" lon="31.2754546478"><ele>47.24</ele><time>2026-09-02T22:59:43Z</time></trkpt><trkpt lat="59.5596966427" lon="31.2754699867"><ele>47.24</ele><time>2026-09-02T22:59:54Z</time></trkpt><trkpt lat="59.5597613510" lon="31.2754941266"><ele>47.24</ele><time>2026-09-02T23:00:05Z</time></trkpt><trkpt lat="59.5598338544" lon="31.2754953001"><ele>47.24</ele><time>2026-09-02T23:00:16Z</time></trkpt><trkpt lat="59.5598939527" lon="31.2754961383"><ele>47.24</ele><time>2026-09-02T23:00:35Z</time></trkpt><trkpt lat="59.5599294081" lon="31.2754589226"><ele>47.24</ele><time>2026-09-02T23:00:47Z</time></trkpt><trkpt lat="59.5599308331" lon="31.2754485290"><ele>47.24</ele><time>2026-09-02T23:01:15Z</time></trkpt><trkpt lat="59.5599598344" lon="31.2753755227"><ele>47.24</ele><time>2026-09-02T23:01:28Z</time></trkpt><trkpt lat="59.5600307453" lon="31.2753290031"><ele>47.24</ele><time>2026-09-02T23:01:40Z</time></trkpt><trkpt lat="59.5600708108" lon="31.2752541527"><ele>46.76</ele><time>2026-09-02T23:02:06Z</time></trkpt><trkpt lat="59.5600150712" lon="31.2751792185"><ele>46.76</ele><time>2026-09-02T23:02:20Z</time></trkpt><trkpt lat="59.5599055197" lon="31.2751072180"><ele>46.76</ele><time>2026-09-02T23:02:37Z</time></trkpt><trkpt lat="59.5598866604" lon="31.2750885263"><ele>46.76</ele><time>2026-09-02T23:02:39Z</time></trkpt><trkpt lat="59.5598341059" lon="31.2750509754"><ele>46.76</ele><time>2026-09-02T23:02:54Z</time></trkpt><trkpt lat="59.5598030929" lon="31.2750663143"><ele>46.76</ele><time>2026-09-02T23:03:09Z</time></trkpt><trkpt lat="59.5597726665" lon="31.2751035299"><ele>46.76</ele><time>2026-09-02T23:03:24Z</time></trkpt><trkpt lat="59.5598239638" lon="31.2749822438"><ele>46.76</ele><time>2026-09-02T23:03:38Z</time></trkpt><trkpt lat="59.5598599222" lon="31.2749404181"><ele>46.76</ele><time>2026-09-02T23:03:50Z</time></trkpt><trkpt lat="59.5598947071" lon="31.2748327106"><ele>46.28</ele><time>2026-09-02T23:04:04Z</time></trkpt><trkpt lat="59.5599320903" lon="31.2747628894"><ele>46.28</ele><time>2026-09-02T23:04:16Z</time></trkpt><trkpt lat="59.5599563140" lon="31.2746841833"><ele>46.28</ele><time>2026-09-02T23:04:32Z</time></trkpt><trkpt lat="59.5599682163" lon="31.2746739574"><ele>46.28</ele><time>2026-09-02T23:04:34Z</time></trkpt><trkpt lat="59.5600496046" lon="31.2745992746"><ele>47.24</ele><time>2026-09-02T23:04:46Z</time></trkpt><trkpt lat="59.5601462480" lon="31.2744642422"><ele>47.24</ele><time>2026-09-02T23:05:03Z</time></trkpt><trkpt lat="59.5602119621" lon="31.2743822671"><ele>48.68</ele><time>2026-09-02T23:05:20Z</time></trkpt><trkpt lat="59.5602103695" lon="31.2743618153"><ele>48.68</ele><time>2026-09-02T23:05:36Z</time></trkpt><trkpt lat="59.5602159016" lon="31.2742984481"><ele>49.16</ele><time>2026-09-02T23:05:57Z</time></trkpt><trkpt lat="59.5602214336" lon="31.2743069138"><ele>49.16</ele><time>2026-09-02T23:06:20Z</time></trkpt><trkpt lat="59.5602334198" lon="31.2743209116"><ele>49.16</ele><time>2026-09-02T23:06:55Z</time></trkpt><trkpt lat="59.5602491777" lon="31.2743458059"><ele>49.16</ele><time>2026-09-02T23:07:23Z</time></trkpt><trkpt lat="59.5602371078" lon="31.2745082472"><ele>49.16</ele><time>2026-09-02T23:07:39Z</time></trkpt><trkpt lat="59.5602411311" lon="31.2746043038"><ele>49.16</ele><time>2026-09-02T23:07:56Z</time></trkpt><trkpt lat="59.5603034087" lon="31.2748477142"><ele>49.16</ele><time>2026-09-02T23:08:13Z</time></trkpt><trkpt lat="59.5603464078" lon="31.2749792263"><ele>49.16</ele><time>2026-09-02T23:08:25Z</time></trkpt><trkpt lat="59.5603966154" lon="31.2750824913"><ele>49.16</ele><time>2026-09-02T23:08:42Z</time></trkpt><trkpt lat="59.5605249424" lon="31.2751817331"><ele>49.16</ele><time>2026-09-02T23:09:00Z</time></trkpt><trkpt lat="59.5606133714" lon="31.2751704175"><ele>49.16</ele><time>2026-09-02T23:09:13Z</time></trkpt><trkpt lat="59.5606735535" lon="31.2750463653"><ele>49.16</ele><time>2026-09-02T23:09:28Z</time></trkpt><trkpt lat="59.5607145410" lon="31.2748871930"><ele>49.16</ele><time>2026-09-02T23:09:41Z</time></trkpt><trkpt lat="59.5607546065" lon="31.2746805791"><ele>48.68</ele><time>2026-09-02T23:09:56Z</time></trkpt><trkpt lat="59.5608290378" lon="31.2745611370"><ele>48.68</ele><time>2026-09-02T23:10:11Z</time></trkpt><trkpt lat="59.5608608052" lon="31.2744878791"><ele>49.16</ele><time>2026-09-02T23:10:22Z</time></trkpt><trkpt lat="59.5608877111" lon="31.2744363304"><ele>49.16</ele><time>2026-09-02T23:10:36Z</time></trkpt><trkpt lat="59.5609437022" lon="31.2744722888"><ele>49.16</ele><time>2026-09-02T23:10:50Z</time></trkpt><trkpt lat="59.5610349812" lon="31.2745141983"><ele>49.16</ele><time>2026-09-02T23:11:02Z</time></trkpt><trkpt lat="59.5611094125" lon="31.2745095044"><ele>49.16</ele><time>2026-09-02T23:11:18Z</time></trkpt><trkpt lat="59.5612006076" lon="31.2744775694"><ele>49.16</ele><time>2026-09-02T23:11:31Z</time></trkpt><trkpt lat="59.5612291060" lon="31.2744530942"><ele>49.16</ele><time>2026-09-02T23:11:36Z</time></trkpt><trkpt lat="59.5612169523" lon="31.2743670121"><ele>48.20</ele><time>2026-09-02T23:11:46Z</time></trkpt><trkpt lat="59.5613088179" lon="31.2742976937"><ele>47.72</ele><time>2026-09-02T23:11:59Z</time></trkpt><trkpt lat="59.5614497177" lon="31.2742003798"><ele>47.72</ele><time>2026-09-02T23:12:14Z</time></trkpt><trkpt lat="59.5614829101" lon="31.2741990387"><ele>51.09</ele><time>2026-09-02T23:12:38Z</time></trkpt><trkpt lat="59.5614894480" lon="31.2742100190"><ele>47.72</ele><time>2026-09-02T23:12:45Z</time></trkpt><trkpt lat="59.5614964887" lon="31.2742156349"><ele>47.24</ele><time>2026-09-02T23:13:19Z</time></trkpt><trkpt lat="59.5615062956" lon="31.2742081750"><ele>47.72</ele><time>2026-09-02T23:13:53Z</time></trkpt><trkpt lat="59.5615212992" lon="31.2742066663"><ele>47.72</ele><time>2026-09-02T23:14:24Z</time></trkpt><trkpt lat="59.5615240652" lon="31.2742057443"><ele>47.72</ele><time>2026-09-02T23:14:48Z</time></trkpt><trkpt lat="59.5615897793" lon="31.2742431276"><ele>47.72</ele><time>2026-09-02T23:15:05Z</time></trkpt><trkpt lat="59.5616079681" lon="31.2742549460"><ele>47.72</ele><time>2026-09-02T23:15:26Z</time></trkpt><trkpt lat="59.5615761168" lon="31.2742613163"><ele>48.20</ele><time>2026-09-02T23:15:47Z</time></trkpt><trkpt lat="59.5615984127" lon="31.2742670998"><ele>48.20</ele><time>2026-09-02T23:16:04Z</time></trkpt><trkpt lat="59.5616197865" lon="31.2742873840"><ele>48.20</ele><time>2026-09-02T23:16:25Z</time></trkpt><trkpt lat="59.5616248995" lon="31.2742836121"><ele>48.20</ele><time>2026-09-02T23:16:49Z</time></trkpt><trkpt lat="59.5616248157" lon="31.2743023876"><ele>48.20</ele><time>2026-09-02T23:17:06Z</time></trkpt><trkpt lat="59.5616280008" lon="31.2742860429"><ele>48.20</ele><time>2026-09-02T23:17:30Z</time></trkpt><trkpt lat="59.5616544038" lon="31.2742992863"><ele>48.68</ele><time>2026-09-02T23:17:55Z</time></trkpt><trkpt lat="59.5616470277" lon="31.2743043993"><ele>48.68</ele><time>2026-09-02T23:18:14Z</time></trkpt><trkpt lat="59.5616459381" lon="31.2743028067"><ele>48.68</ele><time>2026-09-02T23:18:41Z</time></trkpt><trkpt lat="59.5616450999" lon="31.2743105181"><ele>48.68</ele><time>2026-09-02T23:19:10Z</time></trkpt><trkpt lat="59.5616355445" lon="31.2743147928"><ele>48.68</ele><time>2026-09-02T23:19:38Z</time></trkpt><trkpt lat="59.5616387296" lon="31.2743122783"><ele>48.68</ele><time>2026-09-02T23:20:07Z</time></trkpt><trkpt lat="59.5616312698" lon="31.2743091770"><ele>49.16</ele><time>2026-09-02T23:20:28Z</time></trkpt><trkpt lat="59.5616289228" lon="31.2743163016"><ele>49.16</ele><time>2026-09-02T23:20:50Z</time></trkpt><trkpt lat="59.5616274141" lon="31.2743112724"><ele>49.16</ele><time>2026-09-02T23:21:11Z</time></trkpt><trkpt lat="59.5617322717" lon="31.2743193191"><ele>49.16</ele><time>2026-09-02T23:21:27Z</time></trkpt><trkpt lat="59.5617442578" lon="31.2743214983"><ele>49.16</ele><time>2026-09-02T23:21:29Z</time></trkpt><trkpt lat="59.5618548989" lon="31.2743727956"><ele>48.20</ele><time>2026-09-02T23:21:42Z</time></trkpt><trkpt lat="59.5618870016" lon="31.2743011303"><ele>48.68</ele><time>2026-09-02T23:21:55Z</time></trkpt><trkpt lat="59.5619017538" lon="31.2743012141"><ele>48.20</ele><time>2026-09-02T23:22:08Z</time></trkpt><trkpt lat="59.5619394723" lon="31.2741638348"><ele>48.20</ele><time>2026-09-02T23:22:22Z</time></trkpt><trkpt lat="59.5619742572" lon="31.2740645092"><ele>48.20</ele><time>2026-09-02T23:22:34Z</time></trkpt><trkpt lat="59.5620566513" lon="31.2739148922"><ele>48.20</ele><time>2026-09-02T23:22:50Z</time></trkpt><trkpt lat="59.5621577371" lon="31.2737966236"><ele>48.20</ele><time>2026-09-02T23:23:06Z</time></trkpt><trkpt lat="59.5621790271" lon="31.2737605814"><ele>47.72</ele><time>2026-09-02T23:23:23Z</time></trkpt><trkpt lat="59.5621694718" lon="31.2737584021"><ele>47.72</ele><time>2026-09-02T23:23:48Z</time></trkpt><trkpt lat="59.5621723216" lon="31.2737521157"><ele>47.72</ele><time>2026-09-02T23:24:09Z</time></trkpt><trkpt lat="59.5622091182" lon="31.2736764271"><ele>47.72</ele><time>2026-09-02T23:24:23Z</time></trkpt><trkpt lat="59.5621628501" lon="31.2737197615"><ele>49.16</ele><time>2026-09-02T23:24:45Z</time></trkpt><trkpt lat="59.5621456672" lon="31.2738371082"><ele>49.16</ele><time>2026-09-02T23:25:07Z</time></trkpt><trkpt lat="59.5621983893" lon="31.2738122139"><ele>49.16</ele><time>2026-09-02T23:25:33Z</time></trkpt><trkpt lat="59.5622195955" lon="31.2738209311"><ele>49.16</ele><time>2026-09-02T23:25:51Z</time></trkpt><trkpt lat="59.5622915123" lon="31.2739909161"><ele>47.24</ele><time>2026-09-02T23:26:08Z</time></trkpt><trkpt lat="59.5623498503" lon="31.2740100268"><ele>47.24</ele><time>2026-09-02T23:26:20Z</time></trkpt><trkpt lat="59.5624396205" lon="31.2740712985"><ele>46.28</ele><time>2026-09-02T23:26:36Z</time></trkpt><trkpt lat="59.5625295583" lon="31.2740187440"><ele>46.28</ele><time>2026-09-02T23:26:47Z</time></trkpt><trkpt lat="59.5625576377" lon="31.2739876471"><ele>45.80</ele><time>2026-09-02T23:27:07Z</time></trkpt><trkpt lat="59.5625996310" lon="31.2738508545"><ele>45.80</ele><time>2026-09-02T23:27:26Z</time></trkpt><trkpt lat="59.5626245253" lon="31.2737987190"><ele>45.80</ele><time>2026-09-02T23:27:38Z</time></trkpt><trkpt lat="59.5626748167" lon="31.2737104576"><ele>45.32</ele><time>2026-09-02T23:27:53Z</time></trkpt><trkpt lat="59.5627039857" lon="31.2734960485"><ele>45.32</ele><time>2026-09-02T23:28:10Z</time></trkpt><trkpt lat="59.5627538580" lon="31.2733186036"><ele>45.32</ele><time>2026-09-02T23:28:25Z</time></trkpt><trkpt lat="59.5628086757" lon="31.2730989978"><ele>45.32</ele><time>2026-09-02T23:28:43Z</time></trkpt><trkpt lat="59.5628143754" lon="31.2729940563"><ele>45.32</ele><time>2026-09-02T23:28:55Z</time></trkpt><trkpt lat="59.5628419518" lon="31.2727349717"><ele>45.32</ele><time>2026-09-02T23:29:12Z</time></trkpt><trkpt lat="59.5629169699" lon="31.2726250850"><ele>45.32</ele><time>2026-09-02T23:29:27Z</time></trkpt><trkpt lat="59.5629995316" lon="31.2724741269"><ele>45.32</ele><time>2026-09-02T23:29:44Z</time></trkpt><trkpt lat="59.5630317181" lon="31.2724865321"><ele>44.84</ele><time>2026-09-02T23:30:00Z</time></trkpt><trkpt lat="59.5630625635" lon="31.2725162040"><ele>44.36</ele><time>2026-09-02T23:30:15Z</time></trkpt><trkpt lat="59.5631555188" lon="31.2725716084"><ele>44.36</ele><time>2026-09-02T23:30:30Z</time></trkpt><trkpt lat="59.5632535033" lon="31.2727112509"><ele>44.36</ele><time>2026-09-02T23:30:47Z</time></trkpt><trkpt lat="59.5633032080" lon="31.2727274280"><ele>44.36</ele><time>2026-09-02T23:30:59Z</time></trkpt><trkpt lat="59.5633041300" lon="31.2727555912"><ele>44.36</ele><time>2026-09-02T23:31:17Z</time></trkpt><trkpt lat="59.5632985141" lon="31.2727301940"><ele>44.36</ele><time>2026-09-02T23:31:50Z</time></trkpt><trkpt lat="59.5633034594" lon="31.2727257516"><ele>44.36</ele><time>2026-09-02T23:32:25Z</time></trkpt><trkpt lat="59.5633395854" lon="31.2728744466"><ele>44.36</ele><time>2026-09-02T23:32:38Z</time></trkpt><trkpt lat="59.5633616298" lon="31.2729217205"><ele>44.36</ele><time>2026-09-02T23:32:51Z</time></trkpt><trkpt lat="59.5633730292" lon="31.2729741074"><ele>44.36</ele><time>2026-09-02T23:33:07Z</time></trkpt><trkpt lat="59.5633916371" lon="31.2729972415"><ele>44.36</ele><time>2026-09-02T23:33:24Z</time></trkpt><trkpt lat="59.5634192135" lon="31.2730090600"><ele>44.36</ele><time>2026-09-02T23:33:43Z</time></trkpt><trkpt lat="59.5635702554" lon="31.2730287574"><ele>44.36</ele><time>2026-09-02T23:33:57Z</time></trkpt><trkpt lat="59.5636304375" lon="31.2729645520"><ele>44.36</ele><time>2026-09-02T23:34:12Z</time></trkpt><trkpt lat="59.5636694133" lon="31.2729362212"><ele>44.36</ele><time>2026-09-02T23:34:25Z</time></trkpt><trkpt lat="59.5637539867" lon="31.2728720997"><ele>44.36</ele><time>2026-09-02T23:34:37Z</time></trkpt><trkpt lat="59.5638181083" lon="31.2727561779"><ele>44.36</ele><time>2026-09-02T23:34:50Z</time></trkpt><trkpt lat="59.5639387239" lon="31.2726386636"><ele>44.36</ele><time>2026-09-02T23:35:06Z</time></trkpt><trkpt lat="59.5639859140" lon="31.2724422757"><ele>44.36</ele><time>2026-09-02T23:35:20Z</time></trkpt><trkpt lat="59.5640561543" lon="31.2723614741"><ele>44.84</ele><time>2026-09-02T23:35:33Z</time></trkpt><trkpt lat="59.5641661249" lon="31.2722903956"><ele>44.84</ele><time>2026-09-02T23:35:48Z</time></trkpt><trkpt lat="59.5642543025" lon="31.2722771522"><ele>44.84</ele><time>2026-09-02T23:36:03Z</time></trkpt><trkpt lat="59.5643331762" lon="31.2722877134"><ele>45.80</ele><time>2026-09-02T23:36:16Z</time></trkpt><trkpt lat="59.5644402970" lon="31.2722223345"><ele>45.80</ele><time>2026-09-02T23:36:28Z</time></trkpt><trkpt lat="59.5645169914" lon="31.2721330673"><ele>45.80</ele><time>2026-09-02T23:36:41Z</time></trkpt><trkpt lat="59.5645152312" lon="31.2721242663"><ele>46.28</ele><time>2026-09-02T23:36:58Z</time></trkpt><trkpt lat="59.5645036642" lon="31.2721255235"><ele>46.28</ele><time>2026-09-02T23:37:28Z</time></trkpt><trkpt lat="59.5645041671" lon="31.2721074186"><ele>46.28</ele><time>2026-09-02T23:38:08Z</time></trkpt><trkpt lat="59.5644998923" lon="31.2721150462"><ele>46.28</ele><time>2026-09-02T23:38:23Z</time></trkpt><trkpt lat="59.5645015687" lon="31.2721109390"><ele>46.28</ele><time>2026-09-02T23:38:37Z</time></trkpt><trkpt lat="59.5645053405" lon="31.2721004616"><ele>46.28</ele><time>2026-09-02T23:38:53Z</time></trkpt><trkpt lat="59.5645061787" lon="31.2720959354"><ele>46.28</ele><time>2026-09-02T23:39:11Z</time></trkpt><trkpt lat="59.5645024907" lon="31.2720693648"><ele>46.28</ele><time>2026-09-02T23:39:42Z</time></trkpt><trkpt lat="59.5644278079" lon="31.2719406188"><ele>46.28</ele><time>2026-09-02T23:39:55Z</time></trkpt><trkpt lat="59.5643535443" lon="31.2717213482"><ele>46.28</ele><time>2026-09-02T23:40:09Z</time></trkpt><trkpt lat="59.5642593317" lon="31.2716095336"><ele>46.28</ele><time>2026-09-02T23:40:23Z</time></trkpt><trkpt lat="59.5641813800" lon="31.2715900037"><ele>46.28</ele><time>2026-09-02T23:40:34Z</time></trkpt><trkpt lat="59.5641333517" lon="31.2715276424"><ele>46.28</ele><time>2026-09-02T23:40:44Z</time></trkpt><trkpt lat="59.5641046017" lon="31.2714249641"><ele>46.28</ele><time>2026-09-02T23:40:55Z</time></trkpt><trkpt lat="59.5640722476" lon="31.2712760177"><ele>46.28</ele><time>2026-09-02T23:41:08Z</time></trkpt><trkpt lat="59.5640062820" lon="31.2711744290"><ele>46.28</ele><time>2026-09-02T23:41:21Z</time></trkpt><trkpt lat="59.5639138296" lon="31.2711172644"><ele>46.76</ele><time>2026-09-02T23:41:34Z</time></trkpt><trkpt lat="59.5638397336" lon="31.2709564995"><ele>46.76</ele><time>2026-09-02T23:41:49Z</time></trkpt><trkpt lat="59.5638275798" lon="31.2707350496"><ele>46.76</ele><time>2026-09-02T23:42:03Z</time></trkpt><trkpt lat="59.5638242271" lon="31.2707021087"><ele>46.76</ele><time>2026-09-02T23:42:05Z</time></trkpt><trkpt lat="59.5637807250" lon="31.2705798168"><ele>46.76</ele><time>2026-09-02T23:42:16Z</time></trkpt><trkpt lat="59.5637116581" lon="31.2704447005"><ele>46.76</ele><time>2026-09-02T23:42:29Z</time></trkpt><trkpt lat="59.5636716764" lon="31.2702948321"><ele>46.76</ele><time>2026-09-02T23:42:45Z</time></trkpt><trkpt lat="59.5636373945" lon="31.2701774016"><ele>46.76</ele><time>2026-09-02T23:42:58Z</time></trkpt><trkpt lat="59.5636250731" lon="31.2701395992"><ele>47.24</ele><time>2026-09-02T23:43:14Z</time></trkpt><trkpt lat="59.5636173617" lon="31.2700956780"><ele>47.24</ele><time>2026-09-02T23:43:30Z</time></trkpt><trkpt lat="59.5636140928" lon="31.2701125257"><ele>47.24</ele><time>2026-09-02T23:43:44Z</time></trkpt><trkpt lat="59.5636022743" lon="31.2701691035"><ele>47.24</ele><time>2026-09-02T23:44:00Z</time></trkpt><trkpt lat="59.5635951497" lon="31.2701557763"><ele>47.24</ele><time>2026-09-02T23:44:18Z</time></trkpt><trkpt lat="59.5636232290" lon="31.2699567899"><ele>47.24</ele><time>2026-09-02T23:44:33Z</time></trkpt><trkpt lat="59.5636221394" lon="31.2698766589"><ele>47.24</ele><time>2026-09-02T23:44:51Z</time></trkpt><trkpt lat="59.5636180323" lon="31.2698182371"><ele>47.72</ele><time>2026-09-02T23:45:08Z</time></trkpt><trkpt lat="59.5636150986" lon="31.2697826140"><ele>47.72</ele><time>2026-09-02T23:45:27Z</time></trkpt><trkpt lat="59.5636076387" lon="31.2697623298"><ele>47.72</ele><time>2026-09-02T23:45:47Z</time></trkpt><trkpt lat="59.5635964070" lon="31.2697440572"><ele>47.72</ele><time>2026-09-02T23:46:05Z</time></trkpt><trkpt lat="59.5635537431" lon="31.2698144652"><ele>47.72</ele><time>2026-09-02T23:46:24Z</time></trkpt><trkpt lat="59.5634743664" lon="31.2698541954"><ele>48.20</ele><time>2026-09-02T23:46:41Z</time></trkpt><trkpt lat="59.5633219834" lon="31.2699103542"><ele>48.20</ele><time>2026-09-02T23:46:56Z</time></trkpt><trkpt lat="59.5632578619" lon="31.2698577996"><ele>48.20</ele><time>2026-09-02T23:47:10Z</time></trkpt><trkpt lat="59.5632549282" lon="31.2698225118"><ele>48.20</ele><time>2026-09-02T23:47:16Z</time></trkpt><trkpt lat="59.5631946623" lon="31.2696470786"><ele>48.20</ele><time>2026-09-02T23:47:32Z</time></trkpt><trkpt lat="59.5631746296" lon="31.2695944402"><ele>48.20</ele><time>2026-09-02T23:47:56Z</time></trkpt><trkpt lat="59.5631706063" lon="31.2695905007"><ele>48.20</ele><time>2026-09-02T23:48:23Z</time></trkpt><trkpt lat="59.5631532557" lon="31.2696013134"><ele>48.20</ele><time>2026-09-02T23:48:55Z</time></trkpt><trkpt lat="59.5631100889" lon="31.2696411274"><ele>48.20</ele><time>2026-09-02T23:49:05Z</time></trkpt><trkpt lat="59.5630150381" lon="31.2697014771"><ele>48.68</ele><time>2026-09-02T23:49:16Z</time></trkpt><trkpt lat="59.5629248489" lon="31.2697426323"><ele>48.68</ele><time>2026-09-02T23:49:30Z</time></trkpt><trkpt lat="59.5628512558" lon="31.2697816081"><ele>48.68</ele><time>2026-09-02T23:49:42Z</time></trkpt><trkpt lat="59.5627290476" lon="31.2698322348"><ele>48.68</ele><time>2026-09-02T23:49:57Z</time></trkpt><trkpt lat="59.5627060812" lon="31.2698748149"><ele>48.68</ele><time>2026-09-02T23:50:13Z</time></trkpt><trkpt lat="59.5626582205" lon="31.2699338235"><ele>48.68</ele><time>2026-09-02T23:50:26Z</time></trkpt><trkpt lat="59.5626074262" lon="31.2700234260"><ele>48.68</ele><time>2026-09-02T23:50:40Z</time></trkpt><trkpt lat="59.5625210926" lon="31.2701677624"><ele>48.68</ele><time>2026-09-02T23:50:57Z</time></trkpt><trkpt lat="59.5623871498" lon="31.2702690158"><ele>48.68</ele><time>2026-09-02T23:51:12Z</time></trkpt><trkpt lat="59.5622952003" lon="31.2703532539"><ele>48.20</ele><time>2026-09-02T23:51:30Z</time></trkpt><trkpt lat="59.5621433202" lon="31.2703695986"><ele>49.16</ele><time>2026-09-02T23:51:43Z</time></trkpt><trkpt lat="59.5620905980" lon="31.2703841832"><ele>49.65</ele><time>2026-09-02T23:51:58Z</time></trkpt><trkpt lat="59.5620744210" lon="31.2703837641"><ele>49.65</ele><time>2026-09-02T23:52:24Z</time></trkpt><trkpt lat="59.5620487723" lon="31.2704431918"><ele>49.65</ele><time>2026-09-02T23:52:49Z</time></trkpt><trkpt lat="59.5620310027" lon="31.2704160344"><ele>49.65</ele><time>2026-09-02T23:53:15Z</time></trkpt><trkpt lat="59.5620145742" lon="31.2704120949"><ele>49.65</ele><time>2026-09-02T23:53:44Z</time></trkpt><trkpt lat="59.5620268956" lon="31.2704471312"><ele>49.65</ele><time>2026-09-02T23:54:20Z</time></trkpt><trkpt lat="59.5620189328" lon="31.2704743724"><ele>49.65</ele><time>2026-09-02T23:54:42Z</time></trkpt><trkpt lat="59.5620220341" lon="31.2704576086"><ele>49.65</ele><time>2026-09-02T23:55:02Z</time></trkpt><trkpt lat="59.5620194357" lon="31.2704468798"><ele>49.16</ele><time>2026-09-02T23:55:26Z</time></trkpt><trkpt lat="59.5620209444" lon="31.2704451196"><ele>49.16</ele><time>2026-09-02T23:55:50Z</time></trkpt><trkpt lat="59.5620228723" lon="31.2704319600"><ele>49.16</ele><time>2026-09-02T23:56:21Z</time></trkpt><trkpt lat="59.5620287396" lon="31.2704277691"><ele>49.16</ele><time>2026-09-02T23:56:48Z</time></trkpt><trkpt lat="59.5620107185" lon="31.2704344746"><ele>49.16</ele><time>2026-09-02T23:57:02Z</time></trkpt><trkpt lat="59.5618859958" lon="31.2705822475"><ele>49.16</ele><time>2026-09-02T23:57:20Z</time></trkpt><trkpt lat="59.5617856644" lon="31.2706785556"><ele>49.65</ele><time>2026-09-02T23:57:33Z</time></trkpt><trkpt lat="59.5617480297" lon="31.2707822397"><ele>49.65</ele><time>2026-09-02T23:57:49Z</time></trkpt><trkpt lat="59.5616778731" lon="31.2707531545"><ele>49.65</ele><time>2026-09-02T23:58:02Z</time></trkpt><trkpt lat="59.5615989156" lon="31.2707750313"><ele>49.65</ele><time>2026-09-02T23:58:20Z</time></trkpt><trkpt lat="59.5615377277" lon="31.2708243169"><ele>49.65</ele><time>2026-09-02T23:58:27Z</time></trkpt><trkpt lat="59.5614688285" lon="31.2709441781"><ele>50.13</ele><time>2026-09-02T23:58:41Z</time></trkpt><trkpt lat="59.5613964926" lon="31.2710639555"><ele>50.13</ele><time>2026-09-02T23:58:57Z</time></trkpt><trkpt lat="59.5613238215" lon="31.2711273227"><ele>50.13</ele><time>2026-09-02T23:59:11Z</time></trkpt><trkpt lat="59.5612779725" lon="31.2712823879"><ele>50.13</ele><time>2026-09-02T23:59:26Z</time></trkpt><trkpt lat="59.5612067264" lon="31.2714455836"><ele>50.13</ele><time>2026-09-02T23:59:39Z</time></trkpt><trkpt lat="59.5611229911" lon="31.2715648580"><ele>50.13</ele><time>2026-09-02T23:59:55Z</time></trkpt><trkpt lat="59.5610663295" lon="31.2717090268"><ele>50.13</ele><time>2026-09-03T00:00:10Z</time></trkpt><trkpt lat="59.5609614719" lon="31.2717590667"><ele>50.13</ele><time>2026-09-03T00:00:22Z</time></trkpt><trkpt lat="59.5609278604" lon="31.2717210967"><ele>50.13</ele><time>2026-09-03T00:00:34Z</time></trkpt><trkpt lat="59.5609074086" lon="31.2716868985"><ele>50.13</ele><time>2026-09-03T00:00:47Z</time></trkpt><trkpt lat="59.5608799998" lon="31.2717151456"><ele>50.61</ele><time>2026-09-03T00:01:01Z</time></trkpt><trkpt lat="59.5607559476" lon="31.2717215996"><ele>50.61</ele><time>2026-09-03T00:01:16Z</time></trkpt><trkpt lat="59.5607349928" lon="31.2716806121"><ele>50.61</ele><time>2026-09-03T00:01:28Z</time></trkpt><trkpt lat="59.5607221685" lon="31.2717435602"><ele>50.61</ele><time>2026-09-03T00:01:38Z</time></trkpt><trkpt lat="59.5606988668" lon="31.2717644311"><ele>50.61</ele><time>2026-09-03T00:01:53Z</time></trkpt><trkpt lat="59.5606981125" lon="31.2717679515"><ele>50.61</ele><time>2026-09-03T00:02:16Z</time></trkpt><trkpt lat="59.5606931672" lon="31.2717713881"><ele>50.61</ele><time>2026-09-03T00:02:34Z</time></trkpt><trkpt lat="59.5606828574" lon="31.2717711367"><ele>50.61</ele><time>2026-09-03T00:02:51Z</time></trkpt><trkpt lat="59.5606800914" lon="31.2717480026"><ele>50.61</ele><time>2026-09-03T00:03:13Z</time></trkpt><trkpt lat="59.5606668480" lon="31.2717267964"><ele>50.61</ele><time>2026-09-03T00:03:41Z</time></trkpt><trkpt lat="59.5606607292" lon="31.2717323285"><ele>51.09</ele><time>2026-09-03T00:03:59Z</time></trkpt><trkpt lat="59.5606228430" lon="31.2717077695"><ele>51.09</ele><time>2026-09-03T00:04:12Z</time></trkpt><trkpt lat="59.5605819393" lon="31.2716403790"><ele>51.09</ele><time>2026-09-03T00:04:27Z</time></trkpt><trkpt lat="59.5605156384" lon="31.2716169097"><ele>51.09</ele><time>2026-09-03T00:04:46Z</time></trkpt><trkpt lat="59.5604614075" lon="31.2716226093"><ele>50.13</ele><time>2026-09-03T00:04:57Z</time></trkpt><trkpt lat="59.5603928436" lon="31.2716287281"><ele>50.13</ele><time>2026-09-03T00:05:11Z</time></trkpt><trkpt lat="59.5603607409" lon="31.2716523651"><ele>50.13</ele><time>2026-09-03T00:05:26Z</time></trkpt><trkpt lat="59.5603066776" lon="31.2717024889"><ele>50.13</ele><time>2026-09-03T00:05:40Z</time></trkpt><trkpt lat="59.5602438971" lon="31.2718586437"><ele>50.13</ele><time>2026-09-03T00:05:57Z</time></trkpt><trkpt lat="59.5601670351" lon="31.2720842846"><ele>50.13</ele><time>2026-09-03T00:06:10Z</time></trkpt><trkpt lat="59.5600936934" lon="31.2722856179"><ele>50.13</ele><time>2026-09-03T00:06:25Z</time></trkpt><trkpt lat="59.5600207709" lon="31.2723034713"><ele>50.13</ele><time>2026-09-03T00:06:39Z</time></trkpt><trkpt lat="59.5599301625" lon="31.2723797467"><ele>50.13</ele><time>2026-09-03T00:06:54Z</time></trkpt><trkpt lat="59.5599339344" lon="31.2723758910"><ele>51.09</ele><time>2026-09-03T00:06:56Z</time></trkpt><trkpt lat="59.5599361137" lon="31.2723831832"><ele>51.57</ele><time>2026-09-03T00:07:18Z</time></trkpt><trkpt lat="59.5599206071" lon="31.2724097539"><ele>51.57</ele><time>2026-09-03T00:07:51Z</time></trkpt><trkpt lat="59.5599275641" lon="31.2723953370"><ele>51.57</ele><time>2026-09-03T00:08:21Z</time></trkpt><trkpt lat="59.5599185955" lon="31.2723994441"><ele>51.57</ele><time>2026-09-03T00:08:47Z</time></trkpt><trkpt lat="59.5599160809" lon="31.2723898888"><ele>51.57</ele><time>2026-09-03T00:09:08Z</time></trkpt><trkpt lat="59.5599056873" lon="31.2723889668"><ele>51.57</ele><time>2026-09-03T00:09:24Z</time></trkpt><trkpt lat="59.5598908514" lon="31.2723939959"><ele>51.57</ele><time>2026-09-03T00:09:54Z</time></trkpt><trkpt lat="59.5598859061" lon="31.2724051438"><ele>51.57</ele><time>2026-09-03T00:10:22Z</time></trkpt><trkpt lat="59.5598849840" lon="31.2724144477"><ele>51.57</ele><time>2026-09-03T00:10:57Z</time></trkpt><trkpt lat="59.5598874148" lon="31.2724245898"><ele>51.57</ele><time>2026-09-03T00:11:27Z</time></trkpt><trkpt lat="59.5598365366" lon="31.2724134419"><ele>51.57</ele><time>2026-09-03T00:11:50Z</time></trkpt><trkpt lat="59.5597743429" lon="31.2723639049"><ele>51.57</ele><time>2026-09-03T00:12:03Z</time></trkpt><trkpt lat="59.5597191900" lon="31.2723203190"><ele>50.13</ele><time>2026-09-03T00:12:19Z</time></trkpt><trkpt lat="59.5596925355" lon="31.2722435407"><ele>50.13</ele><time>2026-09-03T00:12:33Z</time></trkpt><trkpt lat="59.5596454293" lon="31.2720729690"><ele>50.13</ele><time>2026-09-03T00:12:46Z</time></trkpt><trkpt lat="59.5595834870" lon="31.2720396090"><ele>50.13</ele><time>2026-09-03T00:12:56Z</time></trkpt><trkpt lat="59.5595249813" lon="31.2720079254"><ele>50.13</ele><time>2026-09-03T00:13:10Z</time></trkpt><trkpt lat="59.5595000871" lon="31.2720038183"><ele>50.13</ele><time>2026-09-03T00:13:22Z</time></trkpt><trkpt lat="59.5594093110" lon="31.2719586398"><ele>50.13</ele><time>2026-09-03T00:13:34Z</time></trkpt><trkpt lat="59.5593017712" lon="31.2720329873"><ele>50.13</ele><time>2026-09-03T00:13:48Z</time></trkpt><trkpt lat="59.5592193771" lon="31.2720992044"><ele>50.13</ele><time>2026-09-03T00:14:00Z</time></trkpt><trkpt lat="59.5591606200" lon="31.2721454725"><ele>50.13</ele><time>2026-09-03T00:14:12Z</time></trkpt><trkpt lat="59.5590822492" lon="31.2721878849"><ele>50.13</ele><time>2026-09-03T00:14:22Z</time></trkpt><trkpt lat="59.5590060577" lon="31.2722612265"><ele>50.13</ele><time>2026-09-03T00:14:34Z</time></trkpt><trkpt lat="59.5589365717" lon="31.2723333109"><ele>50.13</ele><time>2026-09-03T00:14:45Z</time></trkpt><trkpt lat="59.5588556863" lon="31.2724788208"><ele>50.13</ele><time>2026-09-03T00:14:57Z</time></trkpt><trkpt lat="59.5588041376" lon="31.2725057267"><ele>50.13</ele><time>2026-09-03T00:15:08Z</time></trkpt><trkpt lat="59.5587542653" lon="31.2725426070"><ele>50.13</ele><time>2026-09-03T00:15:20Z</time></trkpt><trkpt lat="59.5586952567" lon="31.2726900447"><ele>49.65</ele><time>2026-09-03T00:15:31Z</time></trkpt><trkpt lat="59.5585944224" lon="31.2727840059"><ele>49.65</ele><time>2026-09-03T00:15:42Z</time></trkpt><trkpt lat="59.5585293788" lon="31.2728464510"><ele>49.65</ele><time>2026-09-03T00:15:54Z</time></trkpt><trkpt lat="59.5585173927" lon="31.2728648912"><ele>49.65</ele><time>2026-09-03T00:16:16Z</time></trkpt><trkpt lat="59.5584888104" lon="31.2728623766"><ele>49.65</ele><time>2026-09-03T00:16:35Z</time></trkpt><trkpt lat="59.5584507566" lon="31.2728909589"><ele>49.65</ele><time>2026-09-03T00:17:07Z</time></trkpt><trkpt lat="59.5584448893" lon="31.2729064655"><ele>49.65</ele><time>2026-09-03T00:17:32Z</time></trkpt><trkpt lat="59.5583859645" lon="31.2729214691"><ele>49.65</ele><time>2026-09-03T00:17:51Z</time></trkpt><trkpt lat="59.5582889859" lon="31.2729077227"><ele>49.65</ele><time>2026-09-03T00:18:05Z</time></trkpt><trkpt lat="59.5581960306" lon="31.2729003467"><ele>49.65</ele><time>2026-09-03T00:18:18Z</time></trkpt><trkpt lat="59.5580848027" lon="31.2728791405"><ele>49.65</ele><time>2026-09-03T00:18:32Z</time></trkpt><trkpt lat="59.5580080245" lon="31.2728881091"><ele>49.65</ele><time>2026-09-03T00:18:43Z</time></trkpt><trkpt lat="59.5579024125" lon="31.2728997599"><ele>49.65</ele><time>2026-09-03T00:18:56Z</time></trkpt><trkpt lat="59.5578284003" lon="31.2728907913"><ele>49.65</ele><time>2026-09-03T00:19:08Z</time></trkpt><trkpt lat="59.5577387139" lon="31.2729248218"><ele>49.65</ele><time>2026-09-03T00:19:20Z</time></trkpt><trkpt lat="59.5576350298" lon="31.2728726026"><ele>49.65</ele><time>2026-09-03T00:19:35Z</time></trkpt><trkpt lat="59.5575298369" lon="31.2728463672"><ele>49.65</ele><time>2026-09-03T00:19:51Z</time></trkpt><trkpt lat="59.5574725047" lon="31.2727831677"><ele>49.65</ele><time>2026-09-03T00:20:03Z</time></trkpt><trkpt lat="59.5574121550" lon="31.2727864366"><ele>49.65</ele><time>2026-09-03T00:20:18Z</time></trkpt><trkpt lat="59.5572856721" lon="31.2727944832"><ele>49.65</ele><time>2026-09-03T00:20:32Z</time></trkpt><trkpt lat="59.5572294295" lon="31.2728031166"><ele>49.65</ele><time>2026-09-03T00:20:45Z</time></trkpt><trkpt lat="59.5572026074" lon="31.2728014402"><ele>49.65</ele><time>2026-09-03T00:21:06Z</time></trkpt><trkpt lat="59.5572021883" lon="31.2727923878"><ele>49.65</ele><time>2026-09-03T00:21:24Z</time></trkpt><trkpt lat="59.5572094806" lon="31.2727731932"><ele>49.65</ele><time>2026-09-03T00:21:58Z</time></trkpt><trkpt lat="59.5572083909" lon="31.2727699243"><ele>49.65</ele><time>2026-09-03T00:22:27Z</time></trkpt><trkpt lat="59.5572017692" lon="31.2727607880"><ele>49.65</ele><time>2026-09-03T00:23:00Z</time></trkpt><trkpt lat="59.5571736060" lon="31.2726200558"><ele>49.65</ele><time>2026-09-03T00:23:14Z</time></trkpt><trkpt lat="59.5571647212" lon="31.2724732887"><ele>49.65</ele><time>2026-09-03T00:23:32Z</time></trkpt><trkpt lat="59.5571577642" lon="31.2722524256"><ele>49.65</ele><time>2026-09-03T00:23:46Z</time></trkpt><trkpt lat="59.5571632124" lon="31.2721316423"><ele>49.65</ele><time>2026-09-03T00:24:01Z</time></trkpt><trkpt lat="59.5571588539" lon="31.2719893176"><ele>49.65</ele><time>2026-09-03T00:24:15Z</time></trkpt><trkpt lat="59.5571351331" lon="31.2718107831"><ele>49.65</ele><time>2026-09-03T00:24:28Z</time></trkpt><trkpt lat="59.5570994262" lon="31.2716473360"><ele>49.65</ele><time>2026-09-03T00:24:45Z</time></trkpt><trkpt lat="59.5570976660" lon="31.2716296501"><ele>49.65</ele><time>2026-09-03T00:25:01Z</time></trkpt><trkpt lat="59.5570932236" lon="31.2715949491"><ele>49.65</ele><time>2026-09-03T00:25:28Z</time></trkpt><trkpt lat="59.5570679940" lon="31.2715241220"><ele>49.65</ele><time>2026-09-03T00:25:49Z</time></trkpt><trkpt lat="59.5570258331" lon="31.2714520376"><ele>49.65</ele><time>2026-09-03T00:26:04Z</time></trkpt><trkpt lat="59.5569652319" lon="31.2713371217"><ele>49.65</ele><time>2026-09-03T00:26:18Z</time></trkpt><trkpt lat="59.5569190476" lon="31.2711861636"><ele>49.65</ele><time>2026-09-03T00:26:33Z</time></trkpt><trkpt lat="59.5568293612" lon="31.2710150052"><ele>49.65</ele><time>2026-09-03T00:26:47Z</time></trkpt><trkpt lat="59.5567994379" lon="31.2709096447"><ele>49.65</ele><time>2026-09-03T00:27:00Z</time></trkpt><trkpt lat="59.5567580312" lon="31.2706937268"><ele>49.65</ele><time>2026-09-03T00:27:14Z</time></trkpt><trkpt lat="59.5567638986" lon="31.2704840954"><ele>49.65</ele><time>2026-09-03T00:27:28Z</time></trkpt><trkpt lat="59.5567967556" lon="31.2702907249"><ele>49.65</ele><time>2026-09-03T00:27:40Z</time></trkpt><trkpt lat="59.5568126813" lon="31.2702969275"><ele>49.16</ele><time>2026-09-03T00:28:04Z</time></trkpt><trkpt lat="59.5568926446" lon="31.2700996175"><ele>49.16</ele><time>2026-09-03T00:28:17Z</time></trkpt><trkpt lat="59.5569243282" lon="31.2698573805"><ele>49.16</ele><time>2026-09-03T00:28:31Z</time></trkpt><trkpt lat="59.5569006912" lon="31.2697547860"><ele>49.16</ele><time>2026-09-03T00:28:42Z</time></trkpt><trkpt lat="59.5568467956" lon="31.2696140539"><ele>49.16</ele><time>2026-09-03T00:28:55Z</time></trkpt><trkpt lat="59.5568186324" lon="31.2694905046"><ele>49.16</ele><time>2026-09-03T00:29:11Z</time></trkpt><trkpt lat="59.5568288583" lon="31.2694470864"><ele>48.68</ele><time>2026-09-03T00:29:45Z</time></trkpt><trkpt lat="59.5568446163" lon="31.2694351841"><ele>48.68</ele><time>2026-09-03T00:30:16Z</time></trkpt><trkpt lat="59.5568353124" lon="31.2694323342"><ele>48.68</ele><time>2026-09-03T00:30:34Z</time></trkpt><trkpt lat="59.5568157826" lon="31.2693373673"><ele>50.13</ele><time>2026-09-03T00:30:47Z</time></trkpt><trkpt lat="59.5568661578" lon="31.2691405602"><ele>51.09</ele><time>2026-09-03T00:31:03Z</time></trkpt><trkpt lat="59.5568876993" lon="31.2690536398"><ele>51.57</ele><time>2026-09-03T00:31:24Z</time></trkpt><trkpt lat="59.5568784792" lon="31.2690125685"><ele>52.05</ele><time>2026-09-03T00:31:38Z</time></trkpt><trkpt lat="59.5569006074" lon="31.2689369638"><ele>53.97</ele><time>2026-09-03T00:31:53Z</time></trkpt><trkpt lat="59.5568753779" lon="31.2688954733"><ele>53.97</ele><time>2026-09-03T00:32:10Z</time></trkpt><trkpt lat="59.5568612125" lon="31.2688693218"><ele>57.82</ele><time>2026-09-03T00:32:23Z</time></trkpt><trkpt lat="59.5568612125" lon="31.2688513007"><ele>53.97</ele><time>2026-09-03T00:32:35Z</time></trkpt><trkpt lat="59.5568598714" lon="31.2688517198"><ele>52.53</ele><time>2026-09-03T00:32:37Z</time></trkpt><trkpt lat="59.5568547584" lon="31.2688456010"><ele>55.41</ele><time>2026-09-03T00:32:49Z</time></trkpt><trkpt lat="59.5567917265" lon="31.2686960679"><ele>55.89</ele><time>2026-09-03T00:33:04Z</time></trkpt><trkpt lat="59.5567560196" lon="31.2685249094"><ele>55.89</ele><time>2026-09-03T00:33:18Z</time></trkpt><trkpt lat="59.5567106735" lon="31.2683184631"><ele>56.37</ele><time>2026-09-03T00:33:32Z</time></trkpt><trkpt lat="59.5566754695" lon="31.2681526691"><ele>56.86</ele><time>2026-09-03T00:33:43Z</time></trkpt><trkpt lat="59.5566481445" lon="31.2678577099"><ele>57.34</ele><time>2026-09-03T00:34:00Z</time></trkpt><trkpt lat="59.5566525869" lon="31.2677779142"><ele>57.82</ele><time>2026-09-03T00:34:15Z</time></trkpt><trkpt lat="59.5566234179" lon="31.2675262894"><ele>57.82</ele><time>2026-09-03T00:34:30Z</time></trkpt><trkpt lat="59.5565370843" lon="31.2673256267"><ele>57.82</ele><time>2026-09-03T00:34:44Z</time></trkpt><trkpt lat="59.5564867929" lon="31.2671755068"><ele>57.82</ele><time>2026-09-03T00:34:58Z</time></trkpt><trkpt lat="59.5563832764" lon="31.2669834774"><ele>57.82</ele><time>2026-09-03T00:35:10Z</time></trkpt><trkpt lat="59.5563700330" lon="31.2668906059"><ele>57.82</ele><time>2026-09-03T00:35:25Z</time></trkpt><trkpt lat="59.5563192386" lon="31.2668263167"><ele>57.34</ele><time>2026-09-03T00:35:45Z</time></trkpt><trkpt lat="59.5562712941" lon="31.2665072177"><ele>57.34</ele><time>2026-09-03T00:35:59Z</time></trkpt><trkpt lat="59.5562749822" lon="31.2662327103"><ele>57.34</ele><time>2026-09-03T00:36:18Z</time></trkpt><trkpt lat="59.5562603977" lon="31.2661274336"><ele>57.34</ele><time>2026-09-03T00:36:32Z</time></trkpt><trkpt lat="59.5562924165" lon="31.2658211589"><ele>57.34</ele><time>2026-09-03T00:36:46Z</time></trkpt><trkpt lat="59.5562690310" lon="31.2657774054"><ele>57.34</ele><time>2026-09-03T00:37:07Z</time></trkpt><trkpt lat="59.5562799275" lon="31.2657130323"><ele>57.34</ele><time>2026-09-03T00:37:26Z</time></trkpt><trkpt lat="59.5563500002" lon="31.2653282192"><ele>57.82</ele><time>2026-09-03T00:37:40Z</time></trkpt><trkpt lat="59.5563530177" lon="31.2650315836"><ele>58.78</ele><time>2026-09-03T00:37:54Z</time></trkpt><trkpt lat="59.5563779119" lon="31.2646826450"><ele>59.26</ele><time>2026-09-03T00:38:09Z</time></trkpt><trkpt lat="59.5563989505" lon="31.2645432539"><ele>59.74</ele><time>2026-09-03T00:38:22Z</time></trkpt><trkpt lat="59.5563777443" lon="31.2642164435"><ele>59.74</ele><time>2026-09-03T00:38:36Z</time></trkpt><trkpt lat="59.5563816838" lon="31.2638259307"><ele>60.22</ele><time>2026-09-03T00:38:50Z</time></trkpt><trkpt lat="59.5564016327" lon="31.2635501660"><ele>60.70</ele><time>2026-09-03T00:39:11Z</time></trkpt><trkpt lat="59.5564230066" lon="31.2633010559"><ele>61.18</ele><time>2026-09-03T00:39:29Z</time></trkpt><trkpt lat="59.5564087573" lon="31.2632571347"><ele>61.18</ele><time>2026-09-03T00:39:45Z</time></trkpt><trkpt lat="59.5563818514" lon="31.2632214278"><ele>61.18</ele><time>2026-09-03T00:40:05Z</time></trkpt><trkpt lat="59.5563234296" lon="31.2631680351"><ele>61.18</ele><time>2026-09-03T00:40:20Z</time></trkpt><trkpt lat="59.5562747307" lon="31.2631111220"><ele>61.18</ele><time>2026-09-03T00:40:38Z</time></trkpt><trkpt lat="59.5562590566" lon="31.2630157359"><ele>61.18</ele><time>2026-09-03T00:40:55Z</time></trkpt><trkpt lat="59.5562284626" lon="31.2629572302"><ele>60.70</ele><time>2026-09-03T00:41:20Z</time></trkpt><trkpt lat="59.5561749022" lon="31.2628346868"><ele>60.70</ele><time>2026-09-03T00:41:54Z</time></trkpt><trkpt lat="59.5561794285" lon="31.2628411409"><ele>60.70</ele><time>2026-09-03T00:42:27Z</time></trkpt><trkpt lat="59.5561742317" lon="31.2628303282"><ele>60.70</ele><time>2026-09-03T00:42:58Z</time></trkpt><trkpt lat="59.5561812725" lon="31.2628335971"><ele>60.70</ele><time>2026-09-03T00:43:20Z</time></trkpt><trkpt lat="59.5562027302" lon="31.2628409732"><ele>60.70</ele><time>2026-09-03T00:43:41Z</time></trkpt><trkpt lat="59.5561946835" lon="31.2627949566"><ele>60.70</ele><time>2026-09-03T00:44:09Z</time></trkpt><trkpt lat="59.5562053286" lon="31.2628030032"><ele>60.70</ele><time>2026-09-03T00:44:32Z</time></trkpt><trkpt lat="59.5562853757" lon="31.2629647739"><ele>60.70</ele><time>2026-09-03T00:44:46Z</time></trkpt><trkpt lat="59.5563623216" lon="31.2630637642"><ele>60.70</ele><time>2026-09-03T00:45:00Z</time></trkpt><trkpt lat="59.5563962683" lon="31.2631147262"><ele>60.70</ele><time>2026-09-03T00:45:13Z</time></trkpt><trkpt lat="59.5564334001" lon="31.2629984692"><ele>60.70</ele><time>2026-09-03T00:45:25Z</time></trkpt><trkpt lat="59.5564955100" lon="31.2627144065"><ele>61.18</ele><time>2026-09-03T00:45:41Z</time></trkpt><trkpt lat="59.5565343183" lon="31.2624466885"><ele>61.18</ele><time>2026-09-03T00:45:56Z</time></trkpt><trkpt lat="59.5565419458" lon="31.2621464487"><ele>61.66</ele><time>2026-09-03T00:46:08Z</time></trkpt><trkpt lat="59.5565678459" lon="31.2618467119"><ele>61.66</ele><time>2026-09-03T00:46:20Z</time></trkpt><trkpt lat="59.5565871242" lon="31.2616302073"><ele>62.14</ele><time>2026-09-03T00:46:30Z</time></trkpt><trkpt lat="59.5566840190" lon="31.2613147963"><ele>62.62</ele><time>2026-09-03T00:46:42Z</time></trkpt><trkpt lat="59.5566952508" lon="31.2612651754"><ele>62.62</ele><time>2026-09-03T00:46:44Z</time></trkpt><trkpt lat="59.5567175467" lon="31.2611121219"><ele>63.10</ele><time>2026-09-03T00:46:55Z</time></trkpt><trkpt lat="59.5567664970" lon="31.2608954497"><ele>63.58</ele><time>2026-09-03T00:47:07Z</time></trkpt><trkpt lat="59.5567721128" lon="31.2605844811"><ele>63.58</ele><time>2026-09-03T00:47:20Z</time></trkpt><trkpt lat="59.5567524992" lon="31.2604969740"><ele>63.58</ele><time>2026-09-03T00:47:25Z</time></trkpt><trkpt lat="59.5567241684" lon="31.2604522984"><ele>63.58</ele><time>2026-09-03T00:47:28Z</time></trkpt><trkpt lat="59.5566508267" lon="31.2601925433"><ele>63.58</ele><time>2026-09-03T00:47:39Z</time></trkpt><trkpt lat="59.5565728750" lon="31.2600642163"><ele>63.58</ele><time>2026-09-03T00:47:48Z</time></trkpt><trkpt lat="59.5565423649" lon="31.2600413337"><ele>63.58</ele><time>2026-09-03T00:47:51Z</time></trkpt><trkpt lat="59.5564849488" lon="31.2599659804"><ele>63.58</ele><time>2026-09-03T00:47:58Z</time></trkpt><trkpt lat="59.5565112680" lon="31.2598908786"><ele>63.58</ele><time>2026-09-03T00:48:03Z</time></trkpt><trkpt lat="59.5565571170" lon="31.2598980870"><ele>63.58</ele><time>2026-09-03T00:48:17Z</time></trkpt><trkpt lat="59.5565608051" lon="31.2599060498"><ele>63.58</ele><time>2026-09-03T00:48:39Z</time></trkpt><trkpt lat="59.5565588772" lon="31.2599050440"><ele>63.58</ele><time>2026-09-03T00:48:55Z</time></trkpt><trkpt lat="59.5565566979" lon="31.2598969974"><ele>63.58</ele><time>2026-09-03T00:49:16Z</time></trkpt><trkpt lat="59.5565593801" lon="31.2598978356"><ele>63.58</ele><time>2026-09-03T00:49:31Z</time></trkpt><trkpt lat="59.5565591287" lon="31.2598934770"><ele>63.58</ele><time>2026-09-03T00:49:45Z</time></trkpt></trkseg></trk></gpx>